Wetterdaten: Sonntag, 16.07.2023
Datum Zeit Temp. Aussen Temp. o. S. Temp +5cm Feuchte Auss Luftdruck Regen Sonnenschein Regendauer Solar Windben Empfang
16.07.2023 00:00 17,8 C 17,2 C 13,3 C 94 % 1009,0 hPa 0,0 l/m 0 min 0 min 0 W/m 6,4 km/h (2 Bft) 95,74 %
16.07.2023 00:02 17,8 C 17,2 C 13,3 C 94 % 1009,1 hPa 0,0 l/m 0 min 0 min 0 W/m 6,4 km/h (2 Bft) 95,56 %
16.07.2023 00:04 17,8 C 17,2 C 13,3 C 94 % 1009,1 hPa 0,0 l/m 0 min 0 min 0 W/m 3,2 km/h (1 Bft) 95,74 %
16.07.2023 00:07 17,8 C 17,2 C 13,3 C 94 % 1009,3 hPa 0,0 l/m 0 min 0 min 0 W/m 3,2 km/h (1 Bft) 98,63 %
16.07.2023 00:10 17,8 C 17,2 C 12,8 C 94 % 1009,4 hPa 0,0 l/m 0 min 0 min 0 W/m 6,4 km/h (2 Bft) 98,31 %
16.07.2023 00:12 17,8 C 16,7 C 12,8 C 94 % 1009,3 hPa 0,0 l/m 0 min 0 min 0 W/m 6,4 km/h (2 Bft) 95,74 %
16.07.2023 00:14 17,8 C 16,7 C 12,8 C 94 % 1009,2 hPa 0,0 l/m 0 min 0 min 0 W/m 6,4 km/h (2 Bft) 97,87 %
16.07.2023 00:16 17,8 C 16,7 C 12,8 C 94 % 1009,2 hPa 0,0 l/m 0 min 0 min 0 W/m 3,2 km/h (1 Bft) 97,92 %
16.07.2023 00:18 17,8 C 17,2 C 12,8 C 94 % 1009,3 hPa 0,0 l/m 0 min 0 min 0 W/m 3,2 km/h (1 Bft) 97,87 %
16.07.2023 00:20 17,8 C 17,2 C 12,8 C 94 % 1009,2 hPa 0,0 l/m 0 min 0 min 0 W/m 6,4 km/h (2 Bft) 97,87 %
16.07.2023 00:22 17,8 C 17,2 C 12,8 C 94 % 1009,2 hPa 0,0 l/m 0 min 0 min 0 W/m 6,4 km/h (2 Bft) 100,00 %
16.07.2023 00:24 17,8 C 17,2 C 12,8 C 94 % 1009,4 hPa 0,0 l/m 0 min 0 min 0 W/m 6,4 km/h (2 Bft) 100,00 %
16.07.2023 00:26 17,8 C 17,2 C 12,8 C 94 % 1009,4 hPa 0,0 l/m 0 min 0 min 0 W/m 6,4 km/h (2 Bft) 97,83 %
16.07.2023 00:28 17,8 C 17,2 C 12,8 C 94 % 1009,4 hPa 0,0 l/m 0 min 0 min 0 W/m 6,4 km/h (2 Bft) 97,87 %
16.07.2023 00:30 17,8 C 17,2 C 13,3 C 94 % 1009,2 hPa 0,0 l/m 0 min 0 min 0 W/m 6,4 km/h (2 Bft) 97,87 %
16.07.2023 00:32 17,9 C 17,2 C 13,3 C 94 % 1009,2 hPa 0,0 l/m 0 min 0 min 0 W/m 6,4 km/h (2 Bft) 97,87 %
16.07.2023 00:34 17,9 C 17,2 C 13,3 C 94 % 1009,2 hPa 0,0 l/m 0 min 0 min 0 W/m 6,4 km/h (2 Bft) 100,00 %
16.07.2023 00:36 17,9 C 17,2 C 13,3 C 94 % 1009,1 hPa 0,0 l/m 0 min 0 min 0 W/m 9,7 km/h (2 Bft) 100,00 %
16.07.2023 00:38 17,9 C 17,2 C 13,3 C 94 % 1009,1 hPa 0,0 l/m 0 min 0 min 0 W/m 9,7 km/h (2 Bft) 100,00 %
16.07.2023 00:40 17,9 C 17,2 C 13,3 C 94 % 1009,2 hPa 0,0 l/m 0 min 0 min 0 W/m 12,9 km/h (3 Bft) 100,00 %
16.07.2023 00:42 17,9 C 17,2 C 13,3 C 94 % 1009,3 hPa 0,0 l/m 0 min 0 min 0 W/m 6,4 km/h (2 Bft) 100,00 %
16.07.2023 00:44 17,9 C 17,2 C 13,3 C 94 % 1009,3 hPa 0,0 l/m 0 min 0 min 0 W/m 3,2 km/h (1 Bft) 100,00 %
16.07.2023 00:46 17,9 C 17,2 C 13,3 C 94 % 1009,3 hPa 0,0 l/m 0 min 0 min 0 W/m 3,2 km/h (1 Bft) 98,21 %
16.07.2023 00:48 17,9 C 17,2 C 12,8 C 94 % 1009,3 hPa 0,0 l/m 0 min 0 min 0 W/m 3,2 km/h (1 Bft) 100,00 %
16.07.2023 00:50 17,9 C 17,2 C 12,8 C 94 % 1009,3 hPa 0,0 l/m 0 min 0 min 0 W/m 6,4 km/h (2 Bft) 100,00 %
16.07.2023 00:52 17,9 C 17,2 C 12,8 C 94 % 1009,3 hPa 0,0 l/m 0 min 0 min 0 W/m 9,7 km/h (2 Bft) 100,00 %
16.07.2023 00:54 17,9 C 17,2 C 12,8 C 94 % 1009,3 hPa 0,0 l/m 0 min 0 min 0 W/m 3,2 km/h (1 Bft) 100,00 %
16.07.2023 00:56 17,9 C 17,2 C 12,8 C 94 % 1009,3 hPa 0,0 l/m 0 min 0 min 0 W/m 3,2 km/h (1 Bft) 100,00 %
16.07.2023 00:58 18,0 C 17,2 C 13,3 C 94 % 1009,3 hPa 0,0 l/m 0 min 0 min 0 W/m 3,2 km/h (1 Bft) 100,00 %
16.07.2023 01:00 18,0 C 17,2 C 13,3 C 94 % 1009,3 hPa 0,0 l/m 0 min 0 min 0 W/m 6,4 km/h (2 Bft) 100,00 %
16.07.2023 01:02 18,0 C 17,2 C 13,3 C 94 % 1009,4 hPa 0,0 l/m 0 min 0 min 0 W/m 0,0 km/h (0 Bft) 100,00 %
16.07.2023 01:04 18,0 C 17,2 C 13,3 C 94 % 1009,4 hPa 0,0 l/m 0 min 0 min 0 W/m 9,7 km/h (2 Bft) 100,00 %
16.07.2023 01:06 18,0 C 17,2 C 13,3 C 94 % 1009,4 hPa 0,0 l/m 0 min 0 min 0 W/m 6,4 km/h (2 Bft) 100,00 %
16.07.2023 01:08 18,0 C 17,2 C 13,3 C 94 % 1009,4 hPa 0,0 l/m 0 min 0 min 0 W/m 3,2 km/h (1 Bft) 100,00 %
16.07.2023 01:10 18,1 C 17,2 C 13,3 C 94 % 1009,4 hPa 0,0 l/m 0 min 0 min 0 W/m 9,7 km/h (2 Bft) 100,00 %
16.07.2023 01:12 18,1 C 17,2 C 13,3 C 94 % 1009,4 hPa 0,0 l/m 0 min 0 min 0 W/m 12,9 km/h (3 Bft) 100,00 %
16.07.2023 01:14 18,1 C 17,2 C 13,9 C 94 % 1009,5 hPa 0,0 l/m 0 min 0 min 0 W/m 3,2 km/h (1 Bft) 97,87 %
16.07.2023 01:16 18,1 C 17,2 C 13,9 C 94 % 1009,5 hPa 0,0 l/m 0 min 2 min 0 W/m 6,4 km/h (2 Bft) 97,87 %
16.07.2023 01:18 18,1 C 17,2 C 13,9 C 94 % 1009,6 hPa 0,0 l/m 0 min 0 min 0 W/m 9,7 km/h (2 Bft) 95,74 %
16.07.2023 01:20 18,1 C 17,8 C 13,9 C 94 % 1009,5 hPa 0,0 l/m 0 min 0 min 0 W/m 6,4 km/h (2 Bft) 97,87 %
16.07.2023 01:22 18,1 C 17,8 C 13,9 C 94 % 1009,5 hPa 0,0 l/m 0 min 0 min 0 W/m 3,2 km/h (1 Bft) 95,65 %
16.07.2023 01:24 18,2 C 17,8 C 13,9 C 94 % 1009,5 hPa 0,0 l/m 0 min 0 min 0 W/m 6,4 km/h (2 Bft) 95,74 %
16.07.2023 01:26 18,2 C 17,8 C 13,9 C 94 % 1009,6 hPa 0,0 l/m 0 min 0 min 0 W/m 6,4 km/h (2 Bft) 95,74 %
16.07.2023 01:28 18,2 C 17,8 C 13,9 C 93 % 1009,8 hPa 0,0 l/m 0 min 0 min 0 W/m 6,4 km/h (2 Bft) 95,74 %
16.07.2023 01:30 18,3 C 17,8 C 13,9 C 94 % 1009,8 hPa 0,0 l/m 0 min 0 min 0 W/m 3,2 km/h (1 Bft) 93,62 %
16.07.2023 01:32 18,3 C 17,8 C 13,9 C 94 % 1009,8 hPa 0,0 l/m 0 min 0 min 0 W/m 0,0 km/h (0 Bft) 95,74 %
16.07.2023 01:34 18,3 C 17,8 C 13,9 C 93 % 1009,8 hPa 0,0 l/m 0 min 0 min 0 W/m 6,4 km/h (2 Bft) 97,87 %
16.07.2023 01:36 18,4 C 17,8 C 13,9 C 93 % 1009,9 hPa 0,0 l/m 0 min 0 min 0 W/m 6,4 km/h (2 Bft) 95,65 %
16.07.2023 01:38 18,4 C 17,8 C 13,9 C 93 % 1009,8 hPa 0,0 l/m 0 min 0 min 0 W/m 3,2 km/h (1 Bft) 95,74 %
16.07.2023 01:40 18,4 C 17,8 C 13,9 C 93 % 1009,8 hPa 0,0 l/m 0 min 0 min 0 W/m 6,4 km/h (2 Bft) 93,62 %
16.07.2023 01:42 18,4 C 17,8 C 13,9 C 93 % 1009,9 hPa 0,0 l/m 0 min 0 min 0 W/m 6,4 km/h (2 Bft) 95,74 %
16.07.2023 01:44 18,5 C 17,8 C 14,4 C 93 % 1009,9 hPa 0,0 l/m 0 min 0 min 0 W/m 12,9 km/h (3 Bft) 95,74 %
16.07.2023 01:46 18,5 C 17,8 C 14,4 C 93 % 1009,9 hPa 0,0 l/m 0 min 0 min 0 W/m 9,7 km/h (2 Bft) 93,62 %
16.07.2023 01:48 18,6 C 17,8 C 14,4 C 93 % 1009,8 hPa 0,0 l/m 0 min 0 min 0 W/m 6,4 km/h (2 Bft) 95,74 %
16.07.2023 01:50 18,6 C 17,8 C 14,4 C 92 % 1009,8 hPa 0,0 l/m 0 min 0 min 0 W/m 12,9 km/h (3 Bft) 95,65 %
16.07.2023 01:52 18,6 C 17,8 C 14,4 C 92 % 1009,8 hPa 0,0 l/m 0 min 0 min 0 W/m 6,4 km/h (2 Bft) 95,74 %
16.07.2023 01:54 18,6 C 17,8 C 14,4 C 92 % 1009,8 hPa 0,0 l/m 0 min 0 min 0 W/m 6,4 km/h (2 Bft) 93,62 %
16.07.2023 01:56 18,6 C 17,8 C 14,4 C 92 % 1009,9 hPa 0,0 l/m 0 min 0 min 0 W/m 6,4 km/h (2 Bft) 95,74 %
16.07.2023 01:58 18,6 C 17,8 C 14,4 C 92 % 1010,0 hPa 0,0 l/m 0 min 0 min 0 W/m 12,9 km/h (3 Bft) 95,74 %
16.07.2023 02:00 18,6 C 17,8 C 14,4 C 92 % 1010,1 hPa 0,0 l/m 0 min 2 min 0 W/m 16,1 km/h (3 Bft) 97,92 %
16.07.2023 02:02 18,6 C 17,8 C 13,9 C 93 % 1010,1 hPa 0,0 l/m 0 min 2 min 0 W/m 16,1 km/h (3 Bft) 97,87 %
16.07.2023 02:04 18,6 C 17,8 C 13,9 C 93 % 1010,2 hPa 0,0 l/m 0 min 2 min 0 W/m 16,1 km/h (3 Bft) 95,74 %
16.07.2023 02:06 18,6 C 17,2 C 13,9 C 93 % 1010,3 hPa 0,0 l/m 0 min 0 min 0 W/m 9,7 km/h (2 Bft) 97,83 %
16.07.2023 02:08 18,6 C 17,2 C 13,9 C 93 % 1010,3 hPa 0,0 l/m 0 min 0 min 0 W/m 12,9 km/h (3 Bft) 95,74 %
16.07.2023 02:10 18,6 C 17,2 C 13,9 C 93 % 1010,4 hPa 0,0 l/m 0 min 0 min 0 W/m 6,4 km/h (2 Bft) 95,74 %
16.07.2023 02:12 18,6 C 17,2 C 13,9 C 93 % 1010,3 hPa 0,0 l/m 0 min 0 min 0 W/m 9,7 km/h (2 Bft) 100,00 %
16.07.2023 02:14 18,5 C 17,2 C 13,9 C 93 % 1010,2 hPa 0,0 l/m 0 min 0 min 0 W/m 6,4 km/h (2 Bft) 97,87 %
16.07.2023 02:15 18,5 C 17,2 C 13,9 C 93 % 1010,2 hPa 0,0 l/m 0 min 0 min 0 W/m 12,9 km/h (3 Bft) 100,00 %
16.07.2023 02:24 18,3 C 17,2 C 13,9 C 94 % 1010,1 hPa 0,0 l/m 0 min 0 min 0 W/m 6,4 km/h (2 Bft) 100,00 %
16.07.2023 02:26 18,3 C 17,2 C 13,9 C 94 % 1010,1 hPa 0,0 l/m 0 min 0 min 0 W/m 6,4 km/h (2 Bft) 100,00 %
16.07.2023 02:28 18,3 C 17,2 C 13,9 C 94 % 1010,1 hPa 0,0 l/m 0 min 0 min 0 W/m 6,4 km/h (2 Bft) 100,00 %
16.07.2023 02:30 18,2 C 17,2 C 13,9 C 94 % 1010,2 hPa 0,0 l/m 0 min 0 min 0 W/m 6,4 km/h (2 Bft) 100,00 %
16.07.2023 02:32 18,2 C 16,7 C 13,3 C 93 % 1010,2 hPa 0,0 l/m 0 min 0 min 0 W/m 3,2 km/h (1 Bft) 97,83 %
16.07.2023 02:34 18,2 C 16,7 C 13,3 C 94 % 1010,2 hPa 0,0 l/m 0 min 0 min 0 W/m 3,2 km/h (1 Bft) 97,96 %
16.07.2023 02:36 18,1 C 16,7 C 13,3 C 94 % 1010,2 hPa 0,0 l/m 0 min 0 min 0 W/m 6,4 km/h (2 Bft) 97,87 %
16.07.2023 02:38 18,1 C 16,7 C 13,3 C 94 % 1010,3 hPa 0,0 l/m 0 min 0 min 0 W/m 6,4 km/h (2 Bft) 97,87 %
16.07.2023 02:40 18,0 C 16,7 C 13,3 C 94 % 1010,3 hPa 0,0 l/m 0 min 0 min 0 W/m 3,2 km/h (1 Bft) 95,74 %
16.07.2023 02:42 18,0 C 16,7 C 13,3 C 94 % 1010,3 hPa 0,0 l/m 0 min 0 min 0 W/m 12,9 km/h (3 Bft) 97,87 %
16.07.2023 02:44 17,9 C 16,7 C 13,3 C 94 % 1010,3 hPa 0,0 l/m 0 min 0 min 0 W/m 6,4 km/h (2 Bft) 97,14 %
16.07.2023 02:46 17,9 C 16,7 C 13,3 C 94 % 1010,4 hPa 0,0 l/m 0 min 0 min 0 W/m 12,9 km/h (3 Bft) 95,74 %
16.07.2023 02:48 17,8 C 16,7 C 13,3 C 94 % 1010,4 hPa 0,0 l/m 0 min 0 min 0 W/m 6,4 km/h (2 Bft) 97,87 %
16.07.2023 02:50 17,8 C 16,7 C 13,3 C 94 % 1010,4 hPa 0,0 l/m 0 min 0 min 0 W/m 3,2 km/h (1 Bft) 97,83 %
16.07.2023 02:52 17,8 C 16,7 C 13,3 C 94 % 1010,4 hPa 0,0 l/m 0 min 0 min 0 W/m 0,0 km/h (0 Bft) 97,87 %
16.07.2023 02:54 17,8 C 16,7 C 13,3 C 94 % 1010,4 hPa 0,0 l/m 0 min 0 min 0 W/m 3,2 km/h (1 Bft) 95,74 %
16.07.2023 02:56 17,8 C 16,7 C 13,3 C 94 % 1010,4 hPa 0,0 l/m 0 min 0 min 0 W/m 6,4 km/h (2 Bft) 97,87 %
16.07.2023 02:58 17,7 C 16,7 C 13,3 C 94 % 1010,4 hPa 0,0 l/m 0 min 0 min 0 W/m 6,4 km/h (2 Bft) 97,87 %
16.07.2023 03:00 17,7 C 16,7 C 13,3 C 94 % 1010,4 hPa 0,0 l/m 0 min 0 min 0 W/m 3,2 km/h (1 Bft) 100,00 %
16.07.2023 03:02 17,7 C 16,7 C 13,3 C 94 % 1010,3 hPa 0,0 l/m 0 min 0 min 0 W/m 3,2 km/h (1 Bft) 97,87 %
16.07.2023 03:04 17,7 C 16,7 C 13,3 C 94 % 1010,4 hPa 0,0 l/m 0 min 0 min 0 W/m 6,4 km/h (2 Bft) 100,00 %
16.07.2023 03:06 17,7 C 16,7 C 13,3 C 95 % 1010,4 hPa 0,0 l/m 0 min 0 min 0 W/m 3,2 km/h (1 Bft) 100,00 %
16.07.2023 03:08 17,7 C 16,7 C 13,3 C 94 % 1010,4 hPa 0,0 l/m 0 min 0 min 0 W/m 6,4 km/h (2 Bft) 94,29 %
16.07.2023 03:10 17,7 C 16,7 C 13,3 C 95 % 1010,4 hPa 0,0 l/m 0 min 0 min 0 W/m 3,2 km/h (1 Bft) 97,87 %
16.07.2023 03:12 17,7 C 16,7 C 13,3 C 95 % 1010,4 hPa 0,0 l/m 0 min 0 min 0 W/m 12,9 km/h (3 Bft) 95,74 %
16.07.2023 03:14 17,7 C 16,7 C 13,3 C 95 % 1010,4 hPa 0,0 l/m 0 min 0 min 0 W/m 9,7 km/h (2 Bft) 97,87 %
16.07.2023 03:16 17,6 C 16,7 C 13,3 C 95 % 1010,4 hPa 0,0 l/m 0 min 0 min 0 W/m 6,4 km/h (2 Bft) 97,83 %
16.07.2023 03:18 17,6 C 16,7 C 13,3 C 95 % 1010,4 hPa 0,0 l/m 0 min 0 min 0 W/m 0,0 km/h (0 Bft) 100,00 %
16.07.2023 03:20 17,6 C 16,7 C 13,3 C 95 % 1010,3 hPa 0,0 l/m 0 min 0 min 0 W/m 6,4 km/h (2 Bft) 94,00 %
16.07.2023 03:22 17,6 C 16,7 C 13,3 C 95 % 1010,4 hPa 0,0 l/m 0 min 0 min 0 W/m 16,1 km/h (3 Bft) 97,87 %
16.07.2023 03:24 17,6 C 16,7 C 13,3 C 95 % 1010,4 hPa 0,0 l/m 0 min 0 min 0 W/m 6,4 km/h (2 Bft) 97,87 %
16.07.2023 03:26 17,6 C 16,7 C 13,3 C 95 % 1010,3 hPa 0,0 l/m 0 min 0 min 0 W/m 9,7 km/h (2 Bft) 95,74 %
16.07.2023 03:28 17,5 C 16,7 C 13,3 C 95 % 1010,3 hPa 0,0 l/m 0 min 0 min 0 W/m 6,4 km/h (2 Bft) 95,74 %
16.07.2023 03:30 17,5 C 16,7 C 13,3 C 95 % 1010,3 hPa 0,0 l/m 0 min 0 min 0 W/m 6,4 km/h (2 Bft) 97,83 %
16.07.2023 03:32 17,4 C 16,7 C 13,3 C 95 % 1010,3 hPa 0,0 l/m 0 min 0 min 0 W/m 6,4 km/h (2 Bft) 95,74 %
16.07.2023 03:34 17,4 C 16,7 C 13,3 C 95 % 1010,4 hPa 0,0 l/m 0 min 0 min 0 W/m 12,9 km/h (3 Bft) 95,74 %
16.07.2023 03:36 17,4 C 16,7 C 13,3 C 95 % 1010,4 hPa 0,0 l/m 0 min 0 min 0 W/m 9,7 km/h (2 Bft) 95,74 %
16.07.2023 03:38 17,4 C 16,7 C 13,3 C 95 % 1010,4 hPa 0,0 l/m 0 min 0 min 0 W/m 9,7 km/h (2 Bft) 95,74 %
16.07.2023 03:40 17,3 C 16,7 C 13,3 C 95 % 1010,4 hPa 0,0 l/m 0 min 0 min 0 W/m 12,9 km/h (3 Bft) 95,83 %
16.07.2023 03:42 17,3 C 16,7 C 13,3 C 95 % 1010,4 hPa 0,0 l/m 0 min 0 min 0 W/m 6,4 km/h (2 Bft) 100,00 %
16.07.2023 03:44 17,3 C 16,7 C 13,3 C 95 % 1010,5 hPa 0,0 l/m 0 min 0 min 0 W/m 9,7 km/h (2 Bft) 97,87 %
16.07.2023 03:46 17,3 C 16,7 C 13,3 C 95 % 1010,6 hPa 0,0 l/m 0 min 0 min 0 W/m 6,4 km/h (2 Bft) 100,00 %
16.07.2023 03:48 17,3 C 16,7 C 13,3 C 95 % 1010,6 hPa 0,0 l/m 0 min 0 min 0 W/m 6,4 km/h (2 Bft) 97,87 %
16.07.2023 03:50 17,2 C 16,7 C 13,3 C 95 % 1010,6 hPa 0,0 l/m 0 min 0 min 0 W/m 9,7 km/h (2 Bft) 97,92 %
16.07.2023 03:52 17,2 C 16,7 C 13,3 C 95 % 1010,6 hPa 0,0 l/m 0 min 0 min 0 W/m 9,7 km/h (2 Bft) 100,00 %
16.07.2023 03:54 17,2 C 16,7 C 13,3 C 95 % 1010,6 hPa 0,0 l/m 0 min 0 min 0 W/m 3,2 km/h (1 Bft) 100,00 %
16.07.2023 03:56 17,2 C 16,1 C 13,3 C 95 % 1010,6 hPa 0,0 l/m 0 min 0 min 0 W/m 0,0 km/h (0 Bft) 97,83 %
16.07.2023 03:58 17,2 C 16,1 C 13,3 C 95 % 1010,6 hPa 0,0 l/m 0 min 0 min 0 W/m 6,4 km/h (2 Bft) 100,00 %
16.07.2023 04:00 17,2 C 16,1 C 13,3 C 95 % 1010,5 hPa 0,0 l/m 0 min 0 min 0 W/m 6,4 km/h (2 Bft) 97,87 %
16.07.2023 04:02 17,2 C 16,1 C 13,3 C 95 % 1010,6 hPa 0,0 l/m 0 min 0 min 0 W/m 9,7 km/h (2 Bft) 95,74 %
16.07.2023 04:04 17,2 C 16,1 C 13,3 C 94 % 1010,6 hPa 0,0 l/m 0 min 0 min 0 W/m 3,2 km/h (1 Bft) 100,00 %
16.07.2023 04:06 17,1 C 16,1 C 13,3 C 94 % 1010,6 hPa 0,0 l/m 0 min 0 min 0 W/m 6,4 km/h (2 Bft) 97,87 %
16.07.2023 04:08 17,1 C 16,1 C 13,3 C 94 % 1010,6 hPa 0,0 l/m 0 min 0 min 0 W/m 3,2 km/h (1 Bft) 97,87 %
16.07.2023 04:10 17,1 C 16,1 C 13,3 C 94 % 1010,6 hPa 0,0 l/m 0 min 0 min 0 W/m 3,2 km/h (1 Bft) 100,00 %
16.07.2023 04:12 17,1 C 16,1 C 13,3 C 94 % 1010,5 hPa 0,0 l/m 0 min 0 min 0 W/m 0,0 km/h (0 Bft) 97,87 %
16.07.2023 04:14 17,1 C 16,1 C 13,3 C 94 % 1010,6 hPa 0,0 l/m 0 min 0 min 0 W/m 0,0 km/h (0 Bft) 97,87 %
16.07.2023 04:16 17,1 C 16,1 C 13,3 C 94 % 1010,6 hPa 0,0 l/m 0 min 0 min 0 W/m 0,0 km/h (0 Bft) 97,87 %
16.07.2023 04:18 17,0 C 16,1 C 13,3 C 94 % 1010,6 hPa 0,0 l/m 0 min 0 min 0 W/m 0,0 km/h (0 Bft) 100,00 %
16.07.2023 04:20 17,0 C 16,1 C 13,3 C 94 % 1010,6 hPa 0,0 l/m 0 min 0 min 0 W/m 3,2 km/h (1 Bft) 95,74 %
16.07.2023 04:22 17,0 C 16,1 C 13,3 C 94 % 1010,6 hPa 0,0 l/m 0 min 0 min 0 W/m 3,2 km/h (1 Bft) 95,74 %
16.07.2023 04:24 16,9 C 16,1 C 13,3 C 94 % 1010,7 hPa 0,0 l/m 0 min 0 min 0 W/m 3,2 km/h (1 Bft) 97,87 %
16.07.2023 04:26 16,9 C 15,6 C 12,8 C 94 % 1010,7 hPa 0,0 l/m 0 min 0 min 0 W/m 0,0 km/h (0 Bft) 95,74 %
16.07.2023 04:28 16,9 C 15,6 C 12,8 C 94 % 1010,8 hPa 0,0 l/m 0 min 0 min 0 W/m 3,2 km/h (1 Bft) 97,87 %
16.07.2023 04:30 16,9 C 15,6 C 12,8 C 94 % 1010,8 hPa 0,0 l/m 0 min 0 min 0 W/m 6,4 km/h (2 Bft) 97,87 %
16.07.2023 04:32 16,9 C 15,6 C 12,8 C 94 % 1010,8 hPa 0,0 l/m 0 min 0 min 0 W/m 3,2 km/h (1 Bft) 93,62 %
16.07.2023 04:34 16,9 C 15,6 C 13,3 C 94 % 1010,8 hPa 0,0 l/m 0 min 0 min 0 W/m 3,2 km/h (1 Bft) 97,96 %
16.07.2023 04:36 16,9 C 15,6 C 12,8 C 94 % 1010,8 hPa 0,0 l/m 0 min 0 min 0 W/m 3,2 km/h (1 Bft) 95,74 %
16.07.2023 04:38 16,8 C 15,6 C 13,3 C 94 % 1010,9 hPa 0,0 l/m 0 min 0 min 0 W/m 6,4 km/h (2 Bft) 95,65 %
16.07.2023 04:40 16,8 C 15,6 C 13,3 C 94 % 1010,9 hPa 0,0 l/m 0 min 0 min 0 W/m 3,2 km/h (1 Bft) 97,87 %
16.07.2023 04:42 16,8 C 16,1 C 13,3 C 94 % 1010,9 hPa 0,0 l/m 0 min 0 min 0 W/m 3,2 km/h (1 Bft) 97,87 %
16.07.2023 04:44 16,8 C 16,1 C 13,3 C 94 % 1010,9 hPa 0,0 l/m 0 min 0 min 0 W/m 3,2 km/h (1 Bft) 91,49 %
16.07.2023 04:46 16,8 C 16,1 C 13,3 C 94 % 1011,0 hPa 0,0 l/m 0 min 0 min 0 W/m 6,4 km/h (2 Bft) 97,87 %
16.07.2023 04:48 16,8 C 16,1 C 13,3 C 94 % 1011,0 hPa 0,0 l/m 0 min 0 min 0 W/m 12,9 km/h (3 Bft) 97,14 %
16.07.2023 04:50 16,8 C 16,1 C 13,3 C 94 % 1011,1 hPa 0,0 l/m 0 min 0 min 0 W/m 6,4 km/h (2 Bft) 95,74 %
16.07.2023 04:52 16,8 C 16,1 C 13,3 C 94 % 1011,1 hPa 0,0 l/m 0 min 0 min 0 W/m 3,2 km/h (1 Bft) 96,30 %
16.07.2023 04:54 16,8 C 16,1 C 13,3 C 94 % 1011,1 hPa 0,0 l/m 0 min 0 min 0 W/m 0,0 km/h (0 Bft) 95,74 %
16.07.2023 04:56 16,8 C 16,1 C 13,3 C 94 % 1011,2 hPa 0,0 l/m 0 min 0 min 0 W/m 0,0 km/h (0 Bft) 94,00 %
16.07.2023 04:58 16,7 C 16,1 C 13,3 C 94 % 1011,1 hPa 0,0 l/m 0 min 0 min 0 W/m 0,0 km/h (0 Bft) 97,22 %
16.07.2023 05:00 16,7 C 16,1 C 13,3 C 94 % 1011,2 hPa 0,0 l/m 0 min 0 min 0 W/m 0,0 km/h (0 Bft) 91,49 %
16.07.2023 05:02 16,7 C 16,1 C 13,3 C 94 % 1011,2 hPa 0,0 l/m 0 min 0 min 0 W/m 0,0 km/h (0 Bft) 93,62 %
16.07.2023 05:04 16,7 C 16,1 C 13,3 C 94 % 1011,2 hPa 0,0 l/m 0 min 0 min 0 W/m 9,7 km/h (2 Bft) 91,84 %
16.07.2023 05:06 16,7 C 16,1 C 13,3 C 94 % 1011,2 hPa 0,0 l/m 0 min 0 min 0 W/m 9,7 km/h (2 Bft) 93,10 %
16.07.2023 05:08 16,7 C 16,1 C 13,3 C 94 % 1011,2 hPa 0,0 l/m 0 min 0 min 0 W/m 6,4 km/h (2 Bft) 94,29 %
16.07.2023 05:10 16,7 C 16,1 C 13,3 C 94 % 1011,3 hPa 0,0 l/m 0 min 0 min 0 W/m 6,4 km/h (2 Bft) 93,62 %
16.07.2023 05:12 16,6 C 16,1 C 13,3 C 94 % 1011,3 hPa 0,0 l/m 0 min 0 min 0 W/m 6,4 km/h (2 Bft) 92,00 %
16.07.2023 05:14 16,6 C 16,1 C 13,3 C 94 % 1011,3 hPa 0,0 l/m 0 min 0 min 0 W/m 16,1 km/h (3 Bft) 96,00 %
16.07.2023 05:16 16,6 C 16,1 C 13,3 C 93 % 1011,3 hPa 0,0 l/m 0 min 0 min 0 W/m 16,1 km/h (3 Bft) 95,74 %
16.07.2023 05:18 16,6 C 16,1 C 13,3 C 93 % 1011,3 hPa 0,0 l/m 0 min 0 min 0 W/m 12,9 km/h (3 Bft) 91,43 %
16.07.2023 05:20 16,6 C 16,1 C 13,3 C 93 % 1011,4 hPa 0,0 l/m 0 min 0 min 0 W/m 6,4 km/h (2 Bft) 95,74 %
16.07.2023 05:22 16,6 C 16,1 C 13,3 C 93 % 1011,3 hPa 0,0 l/m 0 min 0 min 0 W/m 19,3 km/h (3 Bft) 95,74 %
16.07.2023 05:24 16,6 C 16,1 C 13,3 C 93 % 1011,3 hPa 0,0 l/m 0 min 0 min 0 W/m 19,3 km/h (3 Bft) 95,65 %
16.07.2023 05:26 16,6 C 16,1 C 13,3 C 92 % 1011,3 hPa 0,0 l/m 0 min 0 min 0 W/m 9,7 km/h (2 Bft) 95,74 %
16.07.2023 05:28 16,6 C 16,1 C 13,3 C 92 % 1011,4 hPa 0,0 l/m 0 min 0 min 0 W/m 16,1 km/h (3 Bft) 95,74 %
16.07.2023 05:30 16,6 C 16,1 C 13,3 C 92 % 1011,4 hPa 0,0 l/m 0 min 0 min 0 W/m 12,9 km/h (3 Bft) 97,87 %
16.07.2023 05:32 16,5 C 16,1 C 13,3 C 92 % 1011,4 hPa 0,0 l/m 0 min 0 min 0 W/m 6,4 km/h (2 Bft) 100,00 %
16.07.2023 05:34 16,5 C 16,1 C 13,3 C 91 % 1011,4 hPa 0,0 l/m 0 min 0 min 0 W/m 22,5 km/h (4 Bft) 97,87 %
16.07.2023 05:36 16,6 C 16,1 C 13,3 C 91 % 1011,5 hPa 0,0 l/m 0 min 0 min 0 W/m 9,7 km/h (2 Bft) 97,87 %
16.07.2023 05:38 16,6 C 16,1 C 13,3 C 91 % 1011,6 hPa 0,0 l/m 0 min 0 min 0 W/m 12,9 km/h (3 Bft) 95,65 %
16.07.2023 05:40 16,6 C 16,1 C 12,8 C 90 % 1011,6 hPa 0,0 l/m 0 min 0 min 0 W/m 16,1 km/h (3 Bft) 100,00 %
16.07.2023 05:42 16,6 C 16,1 C 13,3 C 90 % 1011,6 hPa 0,0 l/m 0 min 0 min 0 W/m 9,7 km/h (2 Bft) 97,87 %
16.07.2023 05:44 16,6 C 16,1 C 13,3 C 90 % 1011,6 hPa 0,0 l/m 0 min 0 min 5 W/m 12,9 km/h (3 Bft) 100,00 %
16.07.2023 05:46 16,6 C 16,1 C 12,8 C 90 % 1011,7 hPa 0,0 l/m 0 min 0 min 5 W/m 16,1 km/h (3 Bft) 100,00 %
16.07.2023 05:48 16,6 C 16,1 C 12,8 C 90 % 1011,7 hPa 0,0 l/m 0 min 0 min 5 W/m 12,9 km/h (3 Bft) 97,83 %
16.07.2023 05:50 16,6 C 15,6 C 12,8 C 90 % 1011,7 hPa 0,0 l/m 0 min 0 min 6 W/m 6,4 km/h (2 Bft) 100,00 %
16.07.2023 05:52 16,6 C 15,6 C 12,8 C 89 % 1011,8 hPa 0,0 l/m 0 min 0 min 7 W/m 12,9 km/h (3 Bft) 100,00 %
16.07.2023 05:54 16,6 C 15,6 C 12,8 C 89 % 1011,8 hPa 0,0 l/m 0 min 0 min 7 W/m 6,4 km/h (2 Bft) 97,87 %
16.07.2023 05:56 16,6 C 15,6 C 12,8 C 89 % 1011,8 hPa 0,0 l/m 0 min 0 min 8 W/m 6,4 km/h (2 Bft) 100,00 %
16.07.2023 05:58 16,6 C 15,6 C 12,8 C 89 % 1011,8 hPa 0,0 l/m 0 min 0 min 9 W/m 19,3 km/h (3 Bft) 100,00 %
16.07.2023 06:00 16,6 C 16,1 C 12,8 C 89 % 1011,8 hPa 0,0 l/m 0 min 0 min 9 W/m 22,5 km/h (4 Bft) 100,00 %
16.07.2023 06:02 16,6 C 16,1 C 12,8 C 89 % 1011,9 hPa 0,0 l/m 0 min 0 min 10 W/m 22,5 km/h (4 Bft) 100,00 %
16.07.2023 06:04 16,6 C 16,1 C 12,8 C 89 % 1011,9 hPa 0,0 l/m 0 min 0 min 11 W/m 12,9 km/h (3 Bft) 100,00 %
16.07.2023 06:07 16,6 C 16,1 C 12,8 C 88 % 1011,9 hPa 0,0 l/m 0 min 0 min 11 W/m 16,1 km/h (3 Bft) 100,00 %
16.07.2023 06:08 16,6 C 16,1 C 12,8 C 88 % 1011,9 hPa 0,0 l/m 0 min 0 min 12 W/m 12,9 km/h (3 Bft) 100,00 %
16.07.2023 06:12 16,6 C 16,1 C 12,8 C 88 % 1012,0 hPa 0,0 l/m 0 min 0 min 12 W/m 9,7 km/h (2 Bft) 100,00 %
16.07.2023 06:14 16,6 C 16,1 C 12,8 C 88 % 1012,0 hPa 0,0 l/m 0 min 0 min 13 W/m 22,5 km/h (4 Bft) 100,00 %
16.07.2023 06:16 16,6 C 16,1 C 12,8 C 88 % 1012,0 hPa 0,0 l/m 0 min 0 min 14 W/m 12,9 km/h (3 Bft) 100,00 %
16.07.2023 06:18 16,6 C 16,1 C 12,8 C 88 % 1012,1 hPa 0,0 l/m 0 min 0 min 14 W/m 19,3 km/h (3 Bft) 100,00 %
16.07.2023 06:20 16,6 C 16,1 C 12,8 C 88 % 1012,1 hPa 0,0 l/m 0 min 0 min 15 W/m 9,7 km/h (2 Bft) 100,00 %
16.07.2023 06:22 16,6 C 16,1 C 12,8 C 88 % 1012,1 hPa 0,0 l/m 0 min 0 min 16 W/m 22,5 km/h (4 Bft) 100,00 %
16.07.2023 06:24 16,6 C 16,1 C 12,8 C 87 % 1012,2 hPa 0,0 l/m 0 min 0 min 16 W/m 22,5 km/h (4 Bft) 100,00 %
16.07.2023 06:26 16,6 C 16,1 C 12,8 C 87 % 1012,1 hPa 0,0 l/m 0 min 0 min 17 W/m 12,9 km/h (3 Bft) 100,00 %
16.07.2023 06:28 16,6 C 16,1 C 12,8 C 87 % 1012,2 hPa 0,0 l/m 0 min 0 min 18 W/m 22,5 km/h (4 Bft) 100,00 %
16.07.2023 06:30 16,6 C 16,1 C 12,8 C 87 % 1012,2 hPa 0,0 l/m 0 min 0 min 18 W/m 16,1 km/h (3 Bft) 100,00 %
16.07.2023 06:32 16,6 C 16,1 C 12,8 C 86 % 1012,2 hPa 0,0 l/m 0 min 0 min 19 W/m 19,3 km/h (3 Bft) 97,87 %
16.07.2023 06:34 16,6 C 16,1 C 12,8 C 86 % 1012,1 hPa 0,0 l/m 0 min 0 min 19 W/m 19,3 km/h (3 Bft) 100,00 %
16.07.2023 06:36 16,7 C 16,1 C 12,8 C 86 % 1012,1 hPa 0,0 l/m 0 min 0 min 19 W/m 12,9 km/h (3 Bft) 100,00 %
16.07.2023 06:38 16,7 C 16,1 C 12,8 C 86 % 1012,2 hPa 0,0 l/m 0 min 0 min 20 W/m 19,3 km/h (3 Bft) 100,00 %
16.07.2023 06:40 16,7 C 16,1 C 12,8 C 86 % 1012,2 hPa 0,0 l/m 0 min 0 min 21 W/m 16,1 km/h (3 Bft) 100,00 %
16.07.2023 06:42 16,7 C 16,1 C 12,8 C 86 % 1012,2 hPa 0,0 l/m 0 min 0 min 21 W/m 16,1 km/h (3 Bft) 100,00 %
16.07.2023 06:44 16,7 C 16,1 C 12,8 C 86 % 1012,2 hPa 0,0 l/m 0 min 0 min 21 W/m 9,7 km/h (2 Bft) 97,87 %
16.07.2023 06:46 16,7 C 16,1 C 12,8 C 86 % 1012,3 hPa 0,0 l/m 0 min 0 min 22 W/m 16,1 km/h (3 Bft) 97,87 %
16.07.2023 06:48 16,7 C 16,1 C 12,8 C 86 % 1012,3 hPa 0,0 l/m 0 min 0 min 23 W/m 22,5 km/h (4 Bft) 97,83 %
16.07.2023 06:50 16,7 C 16,1 C 12,8 C 86 % 1012,4 hPa 0,0 l/m 0 min 0 min 23 W/m 19,3 km/h (3 Bft) 97,87 %
16.07.2023 06:52 16,7 C 16,1 C 12,8 C 86 % 1012,4 hPa 0,0 l/m 0 min 0 min 24 W/m 16,1 km/h (3 Bft) 95,74 %
16.07.2023 06:54 16,8 C 16,1 C 12,8 C 86 % 1012,4 hPa 0,0 l/m 0 min 0 min 25 W/m 16,1 km/h (3 Bft) 97,87 %
16.07.2023 06:56 16,8 C 16,1 C 12,8 C 86 % 1012,4 hPa 0,0 l/m 0 min 0 min 25 W/m 9,7 km/h (2 Bft) 97,87 %
16.07.2023 06:58 16,8 C 16,1 C 12,8 C 86 % 1012,5 hPa 0,0 l/m 0 min 0 min 25 W/m 9,7 km/h (2 Bft) 97,87 %
16.07.2023 07:00 16,8 C 16,1 C 13,3 C 86 % 1012,5 hPa 0,0 l/m 0 min 0 min 26 W/m 19,3 km/h (3 Bft) 97,83 %
16.07.2023 07:02 16,8 C 16,1 C 13,3 C 86 % 1012,5 hPa 0,0 l/m 0 min 0 min 26 W/m 12,9 km/h (3 Bft) 97,87 %
16.07.2023 07:04 16,8 C 16,1 C 13,3 C 86 % 1012,5 hPa 0,0 l/m 0 min 0 min 26 W/m 12,9 km/h (3 Bft) 97,87 %
16.07.2023 07:06 16,8 C 16,1 C 13,3 C 86 % 1012,5 hPa 0,0 l/m 0 min 0 min 28 W/m 12,9 km/h (3 Bft) 97,87 %
16.07.2023 07:08 16,8 C 16,1 C 13,3 C 86 % 1012,6 hPa 0,0 l/m 0 min 0 min 28 W/m 16,1 km/h (3 Bft) 97,87 %
16.07.2023 07:10 16,8 C 16,1 C 13,3 C 86 % 1012,6 hPa 0,0 l/m 0 min 0 min 28 W/m 9,7 km/h (2 Bft) 93,62 %
16.07.2023 07:12 16,9 C 16,1 C 13,3 C 86 % 1012,6 hPa 0,0 l/m 0 min 0 min 28 W/m 19,3 km/h (3 Bft) 95,74 %
16.07.2023 07:14 16,9 C 16,7 C 13,3 C 86 % 1012,6 hPa 0,0 l/m 0 min 0 min 30 W/m 16,1 km/h (3 Bft) 100,00 %
16.07.2023 07:16 16,9 C 16,7 C 13,3 C 85 % 1012,6 hPa 0,0 l/m 0 min 0 min 30 W/m 32,2 km/h (5 Bft) 100,00 %
16.07.2023 07:18 16,9 C 16,7 C 13,3 C 85 % 1012,6 hPa 0,0 l/m 0 min 0 min 31 W/m 19,3 km/h (3 Bft) 100,00 %
16.07.2023 07:20 17,0 C 16,7 C 13,3 C 85 % 1012,6 hPa 0,0 l/m 0 min 0 min 32 W/m 22,5 km/h (4 Bft) 97,87 %
16.07.2023 07:22 17,1 C 16,7 C 13,3 C 85 % 1012,7 hPa 0,0 l/m 0 min 0 min 33 W/m 35,4 km/h (5 Bft) 97,87 %
16.07.2023 07:24 17,1 C 16,7 C 13,3 C 84 % 1012,7 hPa 0,0 l/m 0 min 0 min 33 W/m 25,7 km/h (4 Bft) 100,00 %
16.07.2023 07:26 17,1 C 16,7 C 13,3 C 84 % 1012,7 hPa 0,0 l/m 0 min 0 min 34 W/m 25,7 km/h (4 Bft) 100,00 %
16.07.2023 07:28 17,1 C 16,7 C 13,3 C 84 % 1012,7 hPa 0,0 l/m 0 min 0 min 35 W/m 19,3 km/h (3 Bft) 95,65 %
16.07.2023 07:30 17,2 C 16,7 C 13,3 C 84 % 1012,8 hPa 0,0 l/m 0 min 0 min 35 W/m 16,1 km/h (3 Bft) 95,74 %
16.07.2023 07:32 17,2 C 16,7 C 13,3 C 84 % 1012,8 hPa 0,0 l/m 0 min 0 min 37 W/m 16,1 km/h (3 Bft) 93,62 %
16.07.2023 07:34 17,2 C 16,7 C 13,3 C 84 % 1012,8 hPa 0,0 l/m 0 min 0 min 37 W/m 12,9 km/h (3 Bft) 95,74 %
16.07.2023 07:36 17,2 C 16,7 C 13,3 C 83 % 1012,8 hPa 0,0 l/m 0 min 0 min 38 W/m 16,1 km/h (3 Bft) 95,74 %
16.07.2023 07:38 17,3 C 16,7 C 13,3 C 83 % 1012,8 hPa 0,0 l/m 0 min 0 min 39 W/m 16,1 km/h (3 Bft) 95,74 %
16.07.2023 07:40 17,3 C 16,7 C 13,3 C 83 % 1012,8 hPa 0,0 l/m 0 min 0 min 39 W/m 19,3 km/h (3 Bft) 95,74 %
16.07.2023 07:42 17,3 C 16,7 C 13,3 C 83 % 1012,8 hPa 0,0 l/m 0 min 0 min 40 W/m 29,0 km/h (5 Bft) 95,65 %
16.07.2023 07:44 17,3 C 16,7 C 13,3 C 82 % 1012,9 hPa 0,0 l/m 0 min 0 min 40 W/m 22,5 km/h (4 Bft) 95,74 %
16.07.2023 07:46 17,4 C 16,7 C 13,3 C 82 % 1012,9 hPa 0,0 l/m 0 min 0 min 41 W/m 16,1 km/h (3 Bft) 95,74 %
16.07.2023 07:48 17,4 C 16,7 C 13,3 C 82 % 1012,8 hPa 0,0 l/m 0 min 0 min 42 W/m 22,5 km/h (4 Bft) 91,49 %
16.07.2023 07:50 17,4 C 16,7 C 13,3 C 82 % 1012,8 hPa 0,0 l/m 0 min 0 min 43 W/m 25,7 km/h (4 Bft) 95,74 %
16.07.2023 07:52 17,4 C 17,2 C 13,3 C 82 % 1012,9 hPa 0,0 l/m 0 min 0 min 47 W/m 35,4 km/h (5 Bft) 95,74 %
16.07.2023 07:54 17,5 C 17,2 C 13,9 C 81 % 1012,9 hPa 0,0 l/m 0 min 0 min 48 W/m 22,5 km/h (4 Bft) 93,62 %
16.07.2023 07:56 17,5 C 17,2 C 13,9 C 80 % 1013,0 hPa 0,0 l/m 0 min 0 min 46 W/m 25,7 km/h (4 Bft) 95,65 %
16.07.2023 07:58 17,6 C 17,2 C 13,9 C 80 % 1012,9 hPa 0,0 l/m 0 min 0 min 47 W/m 16,1 km/h (3 Bft) 95,74 %
16.07.2023 08:00 17,6 C 17,2 C 13,9 C 80 % 1013,0 hPa 0,0 l/m 0 min 0 min 47 W/m 22,5 km/h (4 Bft) 95,74 %
16.07.2023 08:02 17,6 C 17,2 C 13,9 C 80 % 1013,0 hPa 0,0 l/m 0 min 0 min 73 W/m 19,3 km/h (3 Bft) 95,74 %
16.07.2023 08:04 17,6 C 17,2 C 13,9 C 80 % 1012,9 hPa 0,0 l/m 2 min 0 min 217 W/m 25,7 km/h (4 Bft) 95,74 %
16.07.2023 08:06 17,7 C 17,2 C 13,9 C 79 % 1013,0 hPa 0,0 l/m 2 min 0 min 285 W/m 35,4 km/h (5 Bft) 95,74 %
16.07.2023 08:08 17,7 C 17,2 C 13,9 C 79 % 1012,9 hPa 0,0 l/m 2 min 0 min 290 W/m 22,5 km/h (4 Bft) 97,87 %
16.07.2023 08:10 17,7 C 17,8 C 13,9 C 79 % 1012,9 hPa 0,0 l/m 2 min 0 min 297 W/m 19,3 km/h (3 Bft) 95,65 %
16.07.2023 08:12 17,8 C 18,3 C 13,9 C 79 % 1012,9 hPa 0,0 l/m 2 min 0 min 302 W/m 25,7 km/h (4 Bft) 97,87 %
16.07.2023 08:14 17,8 C 18,9 C 13,9 C 79 % 1013,0 hPa 0,0 l/m 2 min 0 min 308 W/m 25,7 km/h (4 Bft) 95,74 %
16.07.2023 08:16 17,9 C 20,0 C 13,9 C 79 % 1013,1 hPa 0,0 l/m 2 min 0 min 315 W/m 22,5 km/h (4 Bft) 97,87 %
16.07.2023 08:18 17,9 C 20,0 C 13,9 C 78 % 1013,0 hPa 0,0 l/m 2 min 0 min 308 W/m 32,2 km/h (5 Bft) 95,74 %
16.07.2023 08:20 18,0 C 20,6 C 13,9 C 78 % 1013,1 hPa 0,0 l/m 2 min 0 min 257 W/m 25,7 km/h (4 Bft) 97,87 %
16.07.2023 08:22 18,1 C 20,6 C 13,9 C 78 % 1013,1 hPa 0,0 l/m 2 min 0 min 280 W/m 29,0 km/h (5 Bft) 97,87 %
16.07.2023 08:24 18,1 C 20,6 C 13,9 C 77 % 1013,1 hPa 0,0 l/m 2 min 0 min 258 W/m 29,0 km/h (5 Bft) 100,00 %
16.07.2023 08:26 18,1 C 20,0 C 13,9 C 77 % 1013,1 hPa 0,0 l/m 2 min 0 min 312 W/m 32,2 km/h (5 Bft) 95,74 %
16.07.2023 08:28 18,2 C 20,6 C 14,4 C 77 % 1013,1 hPa 0,0 l/m 2 min 0 min 352 W/m 32,2 km/h (5 Bft) 100,00 %
16.07.2023 08:30 18,2 C 21,1 C 14,4 C 77 % 1013,1 hPa 0,0 l/m 2 min 0 min 358 W/m 32,2 km/h (5 Bft) 97,87 %
16.07.2023 08:32 18,3 C 21,1 C 14,4 C 76 % 1013,2 hPa 0,0 l/m 2 min 0 min 365 W/m 25,7 km/h (4 Bft) 97,87 %
16.07.2023 08:34 18,3 C 21,7 C 14,4 C 76 % 1013,2 hPa 0,0 l/m 2 min 0 min 372 W/m 29,0 km/h (5 Bft) 100,00 %
16.07.2023 08:36 18,3 C 21,1 C 15,0 C 75 % 1013,3 hPa 0,0 l/m 2 min 0 min 375 W/m 35,4 km/h (5 Bft) 97,87 %
16.07.2023 08:38 18,4 C 21,1 C 15,0 C 75 % 1013,3 hPa 0,0 l/m 2 min 0 min 381 W/m 29,0 km/h (5 Bft) 100,00 %
16.07.2023 08:40 18,4 C 21,1 C 15,6 C 75 % 1013,3 hPa 0,0 l/m 2 min 0 min 385 W/m 29,0 km/h (5 Bft) 100,00 %
16.07.2023 08:42 18,4 C 21,7 C 15,6 C 75 % 1013,3 hPa 0,0 l/m 2 min 0 min 389 W/m 19,3 km/h (3 Bft) 97,87 %
16.07.2023 08:44 18,5 C 21,7 C 15,6 C 75 % 1013,3 hPa 0,0 l/m 2 min 0 min 399 W/m 35,4 km/h (5 Bft) 95,74 %
16.07.2023 08:46 18,6 C 22,2 C 16,1 C 75 % 1013,3 hPa 0,0 l/m 2 min 0 min 403 W/m 19,3 km/h (3 Bft) 100,00 %
16.07.2023 08:48 18,6 C 22,8 C 16,1 C 75 % 1013,3 hPa 0,0 l/m 2 min 0 min 410 W/m 16,1 km/h (3 Bft) 97,87 %
16.07.2023 08:50 18,7 C 22,8 C 16,7 C 75 % 1013,3 hPa 0,0 l/m 2 min 0 min 419 W/m 25,7 km/h (4 Bft) 97,87 %
16.07.2023 08:52 18,8 C 22,8 C 16,7 C 74 % 1013,4 hPa 0,0 l/m 2 min 0 min 422 W/m 25,7 km/h (4 Bft) 97,87 %
16.07.2023 08:54 18,8 C 22,8 C 16,7 C 74 % 1013,1 hPa 0,0 l/m 2 min 0 min 422 W/m 25,7 km/h (4 Bft) 97,83 %
16.07.2023 08:56 18,8 C 22,2 C 16,7 C 74 % 1013,1 hPa 0,0 l/m 2 min 0 min 435 W/m 29,0 km/h (5 Bft) 93,62 %
16.07.2023 08:58 18,8 C 22,8 C 16,7 C 74 % 1013,2 hPa 0,0 l/m 2 min 0 min 444 W/m 22,5 km/h (4 Bft) 97,87 %
16.07.2023 09:00 18,9 C 22,8 C 16,7 C 73 % 1013,2 hPa 0,0 l/m 2 min 0 min 446 W/m 19,3 km/h (3 Bft) 97,87 %
16.07.2023 09:02 18,9 C 23,3 C 17,2 C 73 % 1013,2 hPa 0,0 l/m 2 min 0 min 447 W/m 19,3 km/h (3 Bft) 97,87 %
16.07.2023 09:04 19,0 C 23,3 C 16,7 C 73 % 1013,3 hPa 0,0 l/m 2 min 0 min 459 W/m 25,7 km/h (4 Bft) 97,62 %
16.07.2023 09:06 19,1 C 23,3 C 17,2 C 73 % 1013,3 hPa 0,0 l/m 2 min 0 min 462 W/m 29,0 km/h (5 Bft) 97,87 %
16.07.2023 09:08 19,1 C 23,3 C 17,2 C 73 % 1013,3 hPa 0,0 l/m 2 min 0 min 469 W/m 22,5 km/h (4 Bft) 97,87 %
16.07.2023 09:10 19,1 C 23,3 C 17,2 C 72 % 1013,3 hPa 0,0 l/m 2 min 0 min 477 W/m 29,0 km/h (5 Bft) 97,87 %
16.07.2023 09:12 19,2 C 23,3 C 17,2 C 72 % 1013,4 hPa 0,0 l/m 2 min 0 min 483 W/m 19,3 km/h (3 Bft) 97,87 %
16.07.2023 09:14 19,2 C 23,3 C 17,2 C 72 % 1013,4 hPa 0,0 l/m 2 min 0 min 489 W/m 29,0 km/h (5 Bft) 97,83 %
16.07.2023 09:16 19,2 C 23,3 C 17,2 C 72 % 1013,4 hPa 0,0 l/m 2 min 0 min 493 W/m 19,3 km/h (3 Bft) 95,74 %
16.07.2023 09:18 19,2 C 23,3 C 17,8 C 72 % 1013,4 hPa 0,0 l/m 2 min 0 min 499 W/m 29,0 km/h (5 Bft) 97,87 %
16.07.2023 09:20 19,3 C 23,9 C 17,8 C 72 % 1013,4 hPa 0,0 l/m 2 min 0 min 500 W/m 16,1 km/h (3 Bft) 100,00 %
16.07.2023 09:22 19,4 C 23,9 C 18,3 C 72 % 1013,4 hPa 0,0 l/m 2 min 0 min 503 W/m 16,1 km/h (3 Bft) 100,00 %
16.07.2023 09:24 19,4 C 23,3 C 17,8 C 71 % 1013,4 hPa 0,0 l/m 2 min 0 min 509 W/m 51,5 km/h (7 Bft) 97,87 %
16.07.2023 09:26 19,5 C 23,3 C 18,3 C 71 % 1013,5 hPa 0,0 l/m 2 min 0 min 517 W/m 12,9 km/h (3 Bft) 97,87 %
16.07.2023 09:28 19,6 C 23,9 C 18,3 C 71 % 1013,4 hPa 0,0 l/m 2 min 0 min 523 W/m 19,3 km/h (3 Bft) 100,00 %
16.07.2023 09:30 19,6 C 23,3 C 18,3 C 70 % 1013,3 hPa 0,0 l/m 2 min 0 min 524 W/m 29,0 km/h (5 Bft) 100,00 %
16.07.2023 09:32 19,7 C 24,4 C 18,3 C 71 % 1013,4 hPa 0,0 l/m 2 min 0 min 534 W/m 16,1 km/h (3 Bft) 100,00 %
16.07.2023 09:34 19,8 C 24,4 C 18,9 C 71 % 1013,4 hPa 0,0 l/m 2 min 0 min 539 W/m 16,1 km/h (3 Bft) 100,00 %
16.07.2023 09:36 19,8 C 23,9 C 18,9 C 70 % 1013,4 hPa 0,0 l/m 2 min 0 min 545 W/m 35,4 km/h (5 Bft) 100,00 %
16.07.2023 09:38 19,9 C 23,9 C 18,9 C 70 % 1013,5 hPa 0,0 l/m 2 min 0 min 551 W/m 16,1 km/h (3 Bft) 97,87 %
16.07.2023 09:40 19,9 C 23,9 C 18,9 C 70 % 1013,5 hPa 0,0 l/m 2 min 0 min 556 W/m 22,5 km/h (4 Bft) 100,00 %
16.07.2023 09:42 20,0 C 23,9 C 19,4 C 69 % 1013,4 hPa 0,0 l/m 2 min 0 min 560 W/m 32,2 km/h (5 Bft) 100,00 %
16.07.2023 09:44 20,0 C 23,9 C 19,4 C 70 % 1013,5 hPa 0,0 l/m 2 min 0 min 580 W/m 22,5 km/h (4 Bft) 100,00 %
16.07.2023 09:46 20,1 C 23,9 C 19,4 C 70 % 1013,4 hPa 0,0 l/m 2 min 0 min 596 W/m 16,1 km/h (3 Bft) 100,00 %
16.07.2023 09:48 20,1 C 23,9 C 19,4 C 70 % 1013,4 hPa 0,0 l/m 2 min 0 min 585 W/m 22,5 km/h (4 Bft) 100,00 %
16.07.2023 09:50 20,2 C 23,9 C 19,4 C 69 % 1013,4 hPa 0,0 l/m 2 min 0 min 582 W/m 38,6 km/h (5 Bft) 100,00 %
16.07.2023 09:52 20,3 C 23,9 C 20,0 C 69 % 1013,5 hPa 0,0 l/m 2 min 0 min 586 W/m 25,7 km/h (4 Bft) 100,00 %
16.07.2023 09:54 20,3 C 23,9 C 20,0 C 69 % 1013,5 hPa 0,0 l/m 2 min 0 min 594 W/m 29,0 km/h (5 Bft) 100,00 %
16.07.2023 09:56 20,4 C 23,9 C 20,0 C 69 % 1013,4 hPa 0,0 l/m 2 min 0 min 600 W/m 19,3 km/h (3 Bft) 100,00 %
16.07.2023 09:58 20,5 C 23,9 C 20,0 C 68 % 1013,5 hPa 0,0 l/m 2 min 0 min 622 W/m 25,7 km/h (4 Bft) 97,87 %
16.07.2023 10:00 20,4 C 23,3 C 19,4 C 68 % 1013,4 hPa 0,0 l/m 2 min 0 min 612 W/m 29,0 km/h (5 Bft) 97,87 %
16.07.2023 10:02 20,5 C 23,9 C 18,9 C 68 % 1013,5 hPa 0,0 l/m 2 min 0 min 622 W/m 22,5 km/h (4 Bft) 95,74 %
16.07.2023 10:04 20,6 C 23,9 C 18,9 C 68 % 1013,5 hPa 0,0 l/m 2 min 0 min 634 W/m 16,1 km/h (3 Bft) 97,96 %
16.07.2023 10:06 20,6 C 23,9 C 18,9 C 68 % 1013,5 hPa 0,0 l/m 2 min 0 min 625 W/m 16,1 km/h (3 Bft) 95,74 %
16.07.2023 10:08 20,7 C 23,9 C 18,9 C 68 % 1013,5 hPa 0,0 l/m 2 min 0 min 650 W/m 32,2 km/h (5 Bft) 93,48 %
16.07.2023 10:10 20,6 C 23,3 C 18,9 C 67 % 1013,6 hPa 0,0 l/m 2 min 0 min 644 W/m 29,0 km/h (5 Bft) 97,87 %
16.07.2023 10:12 20,6 C 23,3 C 18,3 C 67 % 1013,5 hPa 0,0 l/m 2 min 0 min 535 W/m 19,3 km/h (3 Bft) 97,87 %
16.07.2023 10:14 20,6 C 23,3 C 18,3 C 68 % 1013,6 hPa 0,0 l/m 2 min 0 min 503 W/m 16,1 km/h (3 Bft) 97,87 %
16.07.2023 10:16 20,7 C 22,8 C 18,3 C 68 % 1013,7 hPa 0,0 l/m 0 min 0 min 184 W/m 22,5 km/h (4 Bft) 97,87 %
16.07.2023 10:18 20,6 C 22,2 C 17,8 C 68 % 1013,6 hPa 0,0 l/m 0 min 0 min 216 W/m 29,0 km/h (5 Bft) 97,87 %
16.07.2023 10:20 20,6 C 22,2 C 17,8 C 67 % 1013,6 hPa 0,0 l/m 2 min 0 min 721 W/m 41,8 km/h (6 Bft) 97,83 %
16.07.2023 10:22 20,6 C 21,7 C 17,8 C 67 % 1013,6 hPa 0,0 l/m 2 min 0 min 723 W/m 29,0 km/h (5 Bft) 95,74 %
16.07.2023 10:24 20,7 C 22,2 C 17,8 C 68 % 1013,7 hPa 0,0 l/m 2 min 0 min 761 W/m 19,3 km/h (3 Bft) 95,74 %
16.07.2023 10:26 20,7 C 21,7 C 17,8 C 67 % 1013,7 hPa 0,0 l/m 2 min 0 min 783 W/m 29,0 km/h (5 Bft) 95,74 %
16.07.2023 10:28 20,7 C 21,1 C 17,8 C 66 % 1013,7 hPa 0,0 l/m 2 min 0 min 791 W/m 41,8 km/h (6 Bft) 97,87 %
16.07.2023 10:30 20,7 C 21,1 C 17,2 C 66 % 1013,7 hPa 0,0 l/m 2 min 0 min 791 W/m 16,1 km/h (3 Bft) 97,87 %
16.07.2023 10:32 20,7 C 21,1 C 17,8 C 67 % 1013,7 hPa 0,0 l/m 2 min 0 min 791 W/m 22,5 km/h (4 Bft) 97,87 %
16.07.2023 10:34 20,6 C 21,1 C 17,2 C 66 % 1013,7 hPa 0,0 l/m 2 min 0 min 836 W/m 29,0 km/h (5 Bft) 93,62 %
16.07.2023 10:36 20,5 C 20,6 C 17,8 C 66 % 1013,8 hPa 0,0 l/m 2 min 0 min 882 W/m 45,1 km/h (6 Bft) 97,83 %
16.07.2023 10:38 20,5 C 20,6 C 17,8 C 66 % 1013,8 hPa 0,0 l/m 2 min 0 min 840 W/m 38,6 km/h (5 Bft) 97,87 %
16.07.2023 10:40 20,4 C 20,6 C 17,2 C 66 % 1013,7 hPa 0,0 l/m 2 min 0 min 554 W/m 41,8 km/h (6 Bft) 97,87 %
16.07.2023 10:42 20,4 C 20,6 C 17,8 C 67 % 1013,8 hPa 0,0 l/m 0 min 0 min 218 W/m 29,0 km/h (5 Bft) 95,74 %
16.07.2023 10:44 20,4 C 21,1 C 17,8 C 67 % 1013,8 hPa 0,0 l/m 0 min 0 min 309 W/m 32,2 km/h (5 Bft) 97,87 %
16.07.2023 10:46 20,6 C 21,7 C 18,3 C 68 % 1013,8 hPa 0,0 l/m 0 min 0 min 336 W/m 35,4 km/h (5 Bft) 97,87 %
16.07.2023 10:48 20,7 C 21,7 C 18,3 C 67 % 1013,9 hPa 0,0 l/m 0 min 0 min 296 W/m 38,6 km/h (5 Bft) 97,87 %
16.07.2023 10:50 20,8 C 21,7 C 18,9 C 67 % 1013,8 hPa 0,0 l/m 2 min 0 min 748 W/m 35,4 km/h (5 Bft) 95,65 %
16.07.2023 10:52 20,8 C 21,7 C 18,9 C 66 % 1013,9 hPa 0,0 l/m 2 min 0 min 889 W/m 29,0 km/h (5 Bft) 95,74 %
16.07.2023 10:54 20,8 C 21,7 C 18,9 C 66 % 1013,9 hPa 0,0 l/m 2 min 0 min 818 W/m 48,3 km/h (6 Bft) 97,87 %
16.07.2023 10:56 20,9 C 22,2 C 19,4 C 67 % 1013,9 hPa 0,0 l/m 2 min 0 min 848 W/m 29,0 km/h (5 Bft) 97,87 %
16.07.2023 10:58 21,1 C 21,7 C 18,9 C 66 % 1013,9 hPa 0,0 l/m 2 min 0 min 534 W/m 35,4 km/h (5 Bft) 97,14 %
16.07.2023 11:00 21,0 C 21,1 C 18,3 C 65 % 1014,0 hPa 0,0 l/m 0 min 0 min 230 W/m 35,4 km/h (5 Bft) 94,92 %
16.07.2023 11:02 21,0 C 21,7 C 18,3 C 66 % 1014,0 hPa 0,0 l/m 2 min 0 min 494 W/m 22,5 km/h (4 Bft) 97,83 %
16.07.2023 11:04 20,9 C 21,1 C 17,8 C 65 % 1014,0 hPa 0,0 l/m 2 min 0 min 583 W/m 22,5 km/h (4 Bft) 97,37 %
16.07.2023 11:06 20,9 C 21,1 C 17,8 C 66 % 1013,9 hPa 0,0 l/m 0 min 0 min 236 W/m 19,3 km/h (3 Bft) 96,55 %
16.07.2023 11:08 20,9 C 21,7 C 17,8 C 66 % 1013,9 hPa 0,0 l/m 0 min 0 min 199 W/m 22,5 km/h (4 Bft) 97,87 %
16.07.2023 11:10 20,9 C 22,2 C 17,8 C 66 % 1013,9 hPa 0,0 l/m 0 min 0 min 199 W/m 25,7 km/h (4 Bft) 97,14 %
16.07.2023 11:12 20,9 C 22,8 C 18,3 C 67 % 1013,9 hPa 0,0 l/m 0 min 0 min 199 W/m 16,1 km/h (3 Bft) 97,87 %
16.07.2023 11:14 21,1 C 22,8 C 18,3 C 66 % 1013,9 hPa 0,0 l/m 2 min 0 min 848 W/m 35,4 km/h (5 Bft) 93,62 %
16.07.2023 11:16 21,1 C 22,8 C 18,3 C 66 % 1013,9 hPa 0,0 l/m 0 min 0 min 276 W/m 25,7 km/h (4 Bft) 96,55 %
16.07.2023 11:18 21,2 C 22,8 C 18,3 C 66 % 1013,9 hPa 0,0 l/m 2 min 0 min 721 W/m 22,5 km/h (4 Bft) 100,00 %
16.07.2023 11:20 21,3 C 21,7 C 18,3 C 65 % 1013,9 hPa 0,0 l/m 2 min 0 min 646 W/m 32,2 km/h (5 Bft) 100,00 %
16.07.2023 11:22 21,2 C 22,2 C 18,3 C 65 % 1013,8 hPa 0,0 l/m 0 min 0 min 277 W/m 38,6 km/h (5 Bft) 97,87 %
16.07.2023 11:24 21,2 C 22,2 C 18,3 C 66 % 1013,9 hPa 0,0 l/m 0 min 0 min 293 W/m 35,4 km/h (5 Bft) 100,00 %
16.07.2023 11:26 21,3 C 23,3 C 18,9 C 66 % 1014,0 hPa 0,0 l/m 2 min 0 min 595 W/m 22,5 km/h (4 Bft) 100,00 %
16.07.2023 11:28 21,4 C 23,3 C 18,9 C 65 % 1014,0 hPa 0,0 l/m 2 min 0 min 934 W/m 32,2 km/h (5 Bft) 100,00 %
16.07.2023 11:30 21,4 C 22,2 C 18,9 C 65 % 1014,0 hPa 0,0 l/m 0 min 0 min 258 W/m 22,5 km/h (4 Bft) 100,00 %
16.07.2023 11:32 21,6 C 23,3 C 18,9 C 66 % 1014,0 hPa 0,0 l/m 0 min 0 min 251 W/m 19,3 km/h (3 Bft) 95,74 %
16.07.2023 11:34 21,6 C 22,8 C 18,9 C 65 % 1014,0 hPa 0,0 l/m 0 min 0 min 268 W/m 25,7 km/h (4 Bft) 97,83 %
16.07.2023 11:36 21,6 C 22,2 C 18,3 C 64 % 1014,0 hPa 0,0 l/m 0 min 0 min 278 W/m 22,5 km/h (4 Bft) 97,87 %
16.07.2023 11:38 21,6 C 22,2 C 18,3 C 65 % 1014,1 hPa 0,0 l/m 0 min 0 min 291 W/m 19,3 km/h (3 Bft) 97,87 %
16.07.2023 11:40 21,6 C 21,7 C 18,3 C 65 % 1014,0 hPa 0,0 l/m 0 min 0 min 268 W/m 25,7 km/h (4 Bft) 97,87 %
16.07.2023 11:42 21,5 C 21,7 C 18,3 C 64 % 1014,1 hPa 0,0 l/m 0 min 0 min 246 W/m 35,4 km/h (5 Bft) 97,87 %
16.07.2023 11:44 21,4 C 22,8 C 18,9 C 65 % 1014,1 hPa 0,0 l/m 0 min 0 min 246 W/m 29,0 km/h (5 Bft) 97,87 %
16.07.2023 11:46 21,5 C 23,9 C 20,0 C 66 % 1014,0 hPa 0,0 l/m 0 min 0 min 303 W/m 22,5 km/h (4 Bft) 95,65 %
16.07.2023 11:48 21,7 C 24,4 C 20,6 C 66 % 1014,0 hPa 0,0 l/m 2 min 0 min 605 W/m 29,0 km/h (5 Bft) 97,87 %
16.07.2023 11:50 21,9 C 23,9 C 20,6 C 64 % 1014,0 hPa 0,0 l/m 2 min 0 min 402 W/m 29,0 km/h (5 Bft) 93,62 %
16.07.2023 11:52 21,9 C 23,9 C 20,6 C 64 % 1014,0 hPa 0,0 l/m 0 min 0 min 314 W/m 29,0 km/h (5 Bft) 97,87 %
16.07.2023 11:54 22,1 C 24,4 C 20,6 C 64 % 1014,1 hPa 0,0 l/m 0 min 0 min 329 W/m 22,5 km/h (4 Bft) 97,87 %
16.07.2023 11:56 22,2 C 25,6 C 20,6 C 64 % 1014,0 hPa 0,0 l/m 2 min 0 min 1004 W/m 19,3 km/h (3 Bft) 97,87 %
16.07.2023 11:58 22,3 C 24,4 C 20,6 C 64 % 1014,1 hPa 0,0 l/m 2 min 0 min 633 W/m 25,7 km/h (4 Bft) 97,87 %
16.07.2023 12:00 22,3 C 23,9 C 20,0 C 63 % 1014,0 hPa 0,0 l/m 0 min 0 min 357 W/m 29,0 km/h (5 Bft) 97,83 %
16.07.2023 12:02 22,3 C 25,0 C 20,0 C 63 % 1014,1 hPa 0,0 l/m 2 min 0 min 397 W/m 22,5 km/h (4 Bft) 97,87 %
16.07.2023 12:04 22,4 C 23,9 C 20,0 C 63 % 1014,1 hPa 0,0 l/m 2 min 0 min 955 W/m 22,5 km/h (4 Bft) 97,92 %
16.07.2023 12:07 22,4 C 22,8 C 19,4 C 62 % 1014,1 hPa 0,0 l/m 0 min 0 min 268 W/m 35,4 km/h (5 Bft) 97,18 %
16.07.2023 12:08 22,3 C 22,8 C 19,4 C 62 % 1014,1 hPa 0,0 l/m 0 min 0 min 251 W/m 22,5 km/h (4 Bft) 100,00 %
16.07.2023 12:12 22,3 C 25,0 C 20,0 C 63 % 1014,1 hPa 0,0 l/m 0 min 0 min 239 W/m 25,7 km/h (4 Bft) 96,15 %
16.07.2023 12:14 22,3 C 24,4 C 20,0 C 63 % 1014,2 hPa 0,0 l/m 0 min 0 min 239 W/m 25,7 km/h (4 Bft) 95,65 %
16.07.2023 12:16 22,4 C 23,9 C 20,0 C 62 % 1014,1 hPa 0,0 l/m 0 min 0 min 239 W/m 16,1 km/h (3 Bft) 97,87 %
16.07.2023 12:18 22,5 C 23,3 C 19,4 C 62 % 1014,1 hPa 0,0 l/m 0 min 0 min 261 W/m 12,9 km/h (3 Bft) 97,87 %
16.07.2023 12:20 22,5 C 23,3 C 19,4 C 62 % 1014,1 hPa 0,0 l/m 0 min 0 min 306 W/m 22,5 km/h (4 Bft) 95,74 %
16.07.2023 12:22 22,6 C 25,0 C 21,1 C 63 % 1014,2 hPa 0,0 l/m 2 min 0 min 485 W/m 29,0 km/h (5 Bft) 97,87 %
16.07.2023 12:24 22,7 C 25,0 C 22,2 C 62 % 1014,2 hPa 0,0 l/m 2 min 0 min 827 W/m 45,1 km/h (6 Bft) 97,87 %
16.07.2023 12:26 22,7 C 24,4 C 21,7 C 61 % 1014,2 hPa 0,0 l/m 2 min 0 min 739 W/m 32,2 km/h (5 Bft) 97,83 %
16.07.2023 12:28 22,7 C 23,3 C 21,1 C 61 % 1014,2 hPa 0,0 l/m 0 min 0 min 385 W/m 38,6 km/h (5 Bft) 97,87 %
16.07.2023 12:30 22,6 C 24,4 C 21,1 C 60 % 1014,2 hPa 0,0 l/m 0 min 0 min 385 W/m 35,4 km/h (5 Bft) 91,49 %
16.07.2023 12:32 22,6 C 23,3 C 21,1 C 60 % 1014,2 hPa 0,0 l/m 0 min 0 min 363 W/m 29,0 km/h (5 Bft) 91,49 %
16.07.2023 12:34 22,5 C 22,8 C 20,0 C 60 % 1014,2 hPa 0,0 l/m 0 min 0 min 320 W/m 35,4 km/h (5 Bft) 95,74 %
16.07.2023 12:36 22,5 C 23,3 C 20,6 C 61 % 1014,2 hPa 0,0 l/m 0 min 0 min 318 W/m 22,5 km/h (4 Bft) 95,74 %
16.07.2023 12:38 22,5 C 23,9 C 21,1 C 61 % 1014,2 hPa 0,0 l/m 0 min 0 min 322 W/m 12,9 km/h (3 Bft) 97,87 %
16.07.2023 12:40 22,6 C 23,9 C 21,1 C 61 % 1014,3 hPa 0,0 l/m 0 min 0 min 292 W/m 16,1 km/h (3 Bft) 97,87 %
16.07.2023 12:42 22,6 C 23,9 C 21,1 C 61 % 1014,3 hPa 0,0 l/m 0 min 0 min 294 W/m 22,5 km/h (4 Bft) 97,83 %
16.07.2023 12:44 22,6 C 24,4 C 21,1 C 60 % 1014,3 hPa 0,0 l/m 0 min 0 min 333 W/m 16,1 km/h (3 Bft) 97,87 %
16.07.2023 12:46 22,6 C 23,3 C 20,6 C 61 % 1014,3 hPa 0,0 l/m 2 min 0 min 414 W/m 16,1 km/h (3 Bft) 93,62 %
16.07.2023 12:48 22,6 C 23,9 C 20,0 C 60 % 1014,3 hPa 0,0 l/m 0 min 0 min 290 W/m 22,5 km/h (4 Bft) 95,74 %
16.07.2023 12:50 22,7 C 26,1 C 20,6 C 61 % 1014,3 hPa 0,0 l/m 0 min 0 min 290 W/m 12,9 km/h (3 Bft) 95,74 %
16.07.2023 12:52 22,9 C 27,2 C 21,1 C 61 % 1014,3 hPa 0,0 l/m 2 min 0 min 507 W/m 12,9 km/h (3 Bft) 95,74 %
16.07.2023 12:54 23,2 C 26,1 C 21,1 C 61 % 1014,3 hPa 0,0 l/m 2 min 0 min 1074 W/m 19,3 km/h (3 Bft) 93,62 %
16.07.2023 12:56 23,3 C 25,0 C 20,6 C 59 % 1014,3 hPa 0,0 l/m 0 min 0 min 320 W/m 22,5 km/h (4 Bft) 95,65 %
16.07.2023 12:58 23,3 C 23,9 C 20,0 C 59 % 1014,3 hPa 0,0 l/m 0 min 0 min 292 W/m 16,1 km/h (3 Bft) 93,62 %
16.07.2023 13:00 23,2 C 23,9 C 20,0 C 58 % 1014,3 hPa 0,0 l/m 0 min 0 min 292 W/m 25,7 km/h (4 Bft) 93,62 %
16.07.2023 13:02 23,1 C 23,3 C 20,0 C 59 % 1014,3 hPa 0,0 l/m 0 min 0 min 337 W/m 16,1 km/h (3 Bft) 95,74 %
16.07.2023 13:04 23,1 C 23,3 C 19,4 C 60 % 1014,3 hPa 0,0 l/m 0 min 0 min 340 W/m 22,5 km/h (4 Bft) 93,62 %
16.07.2023 13:06 22,9 C 23,3 C 19,4 C 60 % 1014,3 hPa 0,0 l/m 0 min 0 min 321 W/m 16,1 km/h (3 Bft) 93,62 %
16.07.2023 13:08 22,9 C 22,8 C 19,4 C 60 % 1014,4 hPa 0,0 l/m 0 min 0 min 298 W/m 25,7 km/h (4 Bft) 95,74 %
16.07.2023 13:10 22,8 C 22,8 C 19,4 C 60 % 1014,4 hPa 0,0 l/m 0 min 0 min 367 W/m 22,5 km/h (4 Bft) 95,65 %
16.07.2023 13:12 22,8 C 22,8 C 19,4 C 60 % 1014,4 hPa 0,0 l/m 0 min 0 min 399 W/m 22,5 km/h (4 Bft) 97,87 %
16.07.2023 13:14 22,8 C 22,8 C 19,4 C 60 % 1014,4 hPa 0,0 l/m 0 min 0 min 301 W/m 22,5 km/h (4 Bft) 97,87 %
16.07.2023 13:16 22,8 C 22,8 C 18,9 C 60 % 1014,4 hPa 0,0 l/m 0 min 0 min 255 W/m 29,0 km/h (5 Bft) 95,74 %
16.07.2023 13:18 22,7 C 22,2 C 18,9 C 60 % 1014,4 hPa 0,0 l/m 0 min 0 min 219 W/m 29,0 km/h (5 Bft) 100,00 %
16.07.2023 13:20 22,6 C 22,2 C 18,9 C 60 % 1014,4 hPa 0,0 l/m 0 min 0 min 245 W/m 32,2 km/h (5 Bft) 100,00 %
16.07.2023 13:22 22,6 C 22,2 C 18,9 C 61 % 1014,5 hPa 0,0 l/m 0 min 0 min 323 W/m 16,1 km/h (3 Bft) 100,00 %
16.07.2023 13:24 22,6 C 22,8 C 18,9 C 61 % 1014,4 hPa 0,0 l/m 0 min 0 min 396 W/m 22,5 km/h (4 Bft) 100,00 %
16.07.2023 13:26 22,6 C 22,8 C 18,9 C 61 % 1014,4 hPa 0,0 l/m 0 min 0 min 299 W/m 19,3 km/h (3 Bft) 95,74 %
16.07.2023 13:28 22,6 C 22,8 C 18,9 C 61 % 1014,5 hPa 0,0 l/m 0 min 0 min 298 W/m 25,7 km/h (4 Bft) 100,00 %
16.07.2023 13:30 22,6 C 23,3 C 18,9 C 61 % 1014,4 hPa 0,0 l/m 2 min 0 min 436 W/m 25,7 km/h (4 Bft) 100,00 %
16.07.2023 13:32 22,6 C 22,8 C 18,9 C 61 % 1014,5 hPa 0,0 l/m 0 min 0 min 395 W/m 32,2 km/h (5 Bft) 100,00 %
16.07.2023 13:34 22,4 C 22,8 C 18,9 C 60 % 1014,4 hPa 0,0 l/m 0 min 0 min 278 W/m 29,0 km/h (5 Bft) 100,00 %
16.07.2023 13:36 22,4 C 22,8 C 18,9 C 61 % 1014,4 hPa 0,0 l/m 0 min 0 min 352 W/m 25,7 km/h (4 Bft) 100,00 %
16.07.2023 13:38 22,5 C 22,8 C 18,9 C 61 % 1014,5 hPa 0,0 l/m 0 min 0 min 298 W/m 25,7 km/h (4 Bft) 100,00 %
16.07.2023 13:40 22,5 C 22,8 C 18,9 C 61 % 1014,5 hPa 0,0 l/m 0 min 0 min 238 W/m 19,3 km/h (3 Bft) 100,00 %
16.07.2023 13:42 22,5 C 22,2 C 18,9 C 61 % 1014,5 hPa 0,0 l/m 0 min 0 min 178 W/m 35,4 km/h (5 Bft) 100,00 %
16.07.2023 13:44 22,5 C 22,2 C 18,9 C 61 % 1014,5 hPa 0,0 l/m 0 min 0 min 171 W/m 12,9 km/h (3 Bft) 100,00 %
16.07.2023 13:46 22,5 C 22,2 C 18,9 C 62 % 1014,6 hPa 0,0 l/m 0 min 0 min 217 W/m 12,9 km/h (3 Bft) 100,00 %
16.07.2023 13:48 22,5 C 22,2 C 18,9 C 61 % 1014,6 hPa 0,0 l/m 0 min 0 min 287 W/m 38,6 km/h (5 Bft) 100,00 %
16.07.2023 13:50 22,5 C 22,2 C 18,9 C 61 % 1014,6 hPa 0,0 l/m 0 min 0 min 289 W/m 19,3 km/h (3 Bft) 97,83 %
16.07.2023 13:52 22,4 C 22,2 C 18,9 C 60 % 1014,6 hPa 0,0 l/m 0 min 0 min 246 W/m 29,0 km/h (5 Bft) 100,00 %
16.07.2023 13:54 22,4 C 22,2 C 18,3 C 60 % 1014,6 hPa 0,0 l/m 0 min 0 min 259 W/m 22,5 km/h (4 Bft) 100,00 %
16.07.2023 13:56 22,3 C 22,2 C 18,9 C 61 % 1014,7 hPa 0,0 l/m 0 min 0 min 343 W/m 25,7 km/h (4 Bft) 100,00 %
16.07.2023 13:58 22,4 C 22,8 C 18,9 C 61 % 1014,6 hPa 0,0 l/m 2 min 0 min 424 W/m 32,2 km/h (5 Bft) 100,00 %
16.07.2023 14:00 22,4 C 23,3 C 19,4 C 62 % 1014,7 hPa 0,0 l/m 0 min 0 min 378 W/m 19,3 km/h (3 Bft) 100,00 %
16.07.2023 14:02 22,6 C 23,3 C 19,4 C 61 % 1014,6 hPa 0,0 l/m 0 min 0 min 398 W/m 16,1 km/h (3 Bft) 100,00 %
16.07.2023 14:04 22,7 C 23,3 C 19,4 C 61 % 1014,7 hPa 0,0 l/m 0 min 0 min 368 W/m 16,1 km/h (3 Bft) 97,96 %
16.07.2023 14:06 22,8 C 22,8 C 19,4 C 61 % 1014,7 hPa 0,0 l/m 0 min 0 min 298 W/m 25,7 km/h (4 Bft) 100,00 %
16.07.2023 14:08 22,8 C 22,8 C 19,4 C 61 % 1014,6 hPa 0,0 l/m 0 min 0 min 262 W/m 19,3 km/h (3 Bft) 100,00 %
16.07.2023 14:10 22,8 C 22,8 C 18,9 C 60 % 1014,6 hPa 0,0 l/m 0 min 0 min 244 W/m 22,5 km/h (4 Bft) 100,00 %
16.07.2023 14:12 22,8 C 22,8 C 18,9 C 60 % 1014,6 hPa 0,0 l/m 0 min 0 min 253 W/m 12,9 km/h (3 Bft) 100,00 %
16.07.2023 14:14 22,8 C 22,8 C 18,9 C 60 % 1014,7 hPa 0,0 l/m 0 min 0 min 278 W/m 12,9 km/h (3 Bft) 100,00 %
16.07.2023 14:16 22,8 C 22,8 C 18,9 C 60 % 1014,6 hPa 0,0 l/m 0 min 0 min 327 W/m 9,7 km/h (2 Bft) 100,00 %
16.07.2023 14:18 22,8 C 22,8 C 18,9 C 60 % 1014,7 hPa 0,0 l/m 0 min 0 min 372 W/m 19,3 km/h (3 Bft) 100,00 %
16.07.2023 14:20 22,8 C 22,8 C 18,9 C 60 % 1014,6 hPa 0,0 l/m 0 min 0 min 358 W/m 29,0 km/h (5 Bft) 100,00 %
16.07.2023 14:22 22,8 C 22,8 C 18,9 C 60 % 1014,6 hPa 0,0 l/m 0 min 0 min 385 W/m 16,1 km/h (3 Bft) 100,00 %
16.07.2023 14:24 22,8 C 22,8 C 19,4 C 60 % 1014,7 hPa 0,0 l/m 0 min 0 min 405 W/m 32,2 km/h (5 Bft) 100,00 %
16.07.2023 14:26 22,8 C 22,8 C 18,9 C 60 % 1014,6 hPa 0,0 l/m 0 min 0 min 334 W/m 32,2 km/h (5 Bft) 100,00 %
16.07.2023 14:28 22,7 C 22,8 C 19,4 C 60 % 1014,7 hPa 0,0 l/m 0 min 0 min 344 W/m 29,0 km/h (5 Bft) 97,83 %
16.07.2023 14:30 22,8 C 23,3 C 19,4 C 60 % 1014,7 hPa 0,0 l/m 0 min 0 min 399 W/m 35,4 km/h (5 Bft) 100,00 %
16.07.2023 14:32 22,8 C 23,9 C 19,4 C 59 % 1014,7 hPa 0,0 l/m 2 min 0 min 446 W/m 22,5 km/h (4 Bft) 100,00 %
16.07.2023 14:34 22,9 C 25,0 C 19,4 C 60 % 1014,7 hPa 0,0 l/m 2 min 0 min 832 W/m 25,7 km/h (4 Bft) 100,00 %
16.07.2023 14:36 23,2 C 25,6 C 20,0 C 60 % 1014,7 hPa 0,0 l/m 2 min 0 min 1066 W/m 19,3 km/h (3 Bft) 97,87 %
16.07.2023 14:38 23,3 C 26,1 C 20,0 C 59 % 1014,7 hPa 0,0 l/m 2 min 0 min 647 W/m 32,2 km/h (5 Bft) 100,00 %
16.07.2023 14:40 23,3 C 25,0 C 20,0 C 58 % 1014,8 hPa 0,0 l/m 2 min 0 min 875 W/m 29,0 km/h (5 Bft) 97,87 %
16.07.2023 14:42 23,4 C 24,4 C 20,0 C 59 % 1014,7 hPa 0,0 l/m 0 min 0 min 404 W/m 29,0 km/h (5 Bft) 100,00 %
16.07.2023 14:44 23,4 C 24,4 C 20,0 C 59 % 1014,7 hPa 0,0 l/m 0 min 0 min 406 W/m 38,6 km/h (5 Bft) 97,87 %
16.07.2023 14:46 23,4 C 25,6 C 20,0 C 59 % 1014,7 hPa 0,0 l/m 2 min 0 min 413 W/m 19,3 km/h (3 Bft) 95,74 %
16.07.2023 14:48 23,6 C 25,6 C 20,0 C 59 % 1014,8 hPa 0,0 l/m 0 min 0 min 397 W/m 12,9 km/h (3 Bft) 95,74 %
16.07.2023 14:50 23,7 C 25,6 C 20,6 C 59 % 1014,8 hPa 0,0 l/m 0 min 0 min 352 W/m 19,3 km/h (3 Bft) 97,87 %
16.07.2023 14:52 23,8 C 26,7 C 20,0 C 58 % 1014,8 hPa 0,0 l/m 2 min 0 min 591 W/m 22,5 km/h (4 Bft) 95,74 %
16.07.2023 14:54 23,8 C 27,8 C 20,6 C 59 % 1014,8 hPa 0,0 l/m 2 min 0 min 1044 W/m 35,4 km/h (5 Bft) 97,83 %
16.07.2023 14:56 23,9 C 26,7 C 20,6 C 57 % 1014,8 hPa 0,0 l/m 2 min 0 min 828 W/m 19,3 km/h (3 Bft) 95,74 %
16.07.2023 14:58 24,0 C 25,6 C 20,6 C 58 % 1014,8 hPa 0,0 l/m 0 min 0 min 327 W/m 16,1 km/h (3 Bft) 97,87 %
16.07.2023 15:00 24,1 C 24,4 C 20,0 C 59 % 1014,8 hPa 0,0 l/m 0 min 0 min 292 W/m 16,1 km/h (3 Bft) 97,87 %
16.07.2023 15:02 23,9 C 23,9 C 20,0 C 58 % 1014,9 hPa 0,0 l/m 0 min 0 min 316 W/m 32,2 km/h (5 Bft) 93,62 %
16.07.2023 15:04 23,7 C 23,3 C 19,4 C 59 % 1014,9 hPa 0,0 l/m 0 min 0 min 253 W/m 16,1 km/h (3 Bft) 95,83 %
16.07.2023 15:06 23,6 C 23,3 C 19,4 C 58 % 1014,9 hPa 0,0 l/m 0 min 0 min 263 W/m 16,1 km/h (3 Bft) 95,74 %
16.07.2023 15:08 23,4 C 23,3 C 19,4 C 59 % 1014,8 hPa 0,0 l/m 0 min 0 min 349 W/m 19,3 km/h (3 Bft) 93,62 %
16.07.2023 15:10 23,3 C 23,3 C 19,4 C 59 % 1014,8 hPa 0,0 l/m 0 min 0 min 344 W/m 19,3 km/h (3 Bft) 93,48 %
16.07.2023 15:12 23,2 C 23,9 C 19,4 C 59 % 1014,9 hPa 0,0 l/m 0 min 0 min 353 W/m 19,3 km/h (3 Bft) 93,62 %
16.07.2023 15:14 23,2 C 23,3 C 19,4 C 60 % 1014,8 hPa 0,0 l/m 0 min 0 min 361 W/m 16,1 km/h (3 Bft) 93,62 %
16.07.2023 15:16 23,2 C 23,3 C 19,4 C 59 % 1014,8 hPa 0,0 l/m 0 min 0 min 295 W/m 12,9 km/h (3 Bft) 91,49 %
16.07.2023 15:18 23,2 C 23,3 C 19,4 C 59 % 1014,9 hPa 0,0 l/m 0 min 0 min 295 W/m 29,0 km/h (5 Bft) 95,74 %
16.07.2023 15:20 23,2 C 23,3 C 19,4 C 59 % 1014,8 hPa 0,0 l/m 0 min 0 min 306 W/m 19,3 km/h (3 Bft) 93,62 %
16.07.2023 15:22 23,2 C 23,9 C 19,4 C 59 % 1014,9 hPa 0,0 l/m 2 min 0 min 402 W/m 16,1 km/h (3 Bft) 95,74 %
16.07.2023 15:24 23,3 C 26,7 C 20,0 C 60 % 1015,0 hPa 0,0 l/m 2 min 0 min 406 W/m 19,3 km/h (3 Bft) 95,65 %
16.07.2023 15:26 23,6 C 27,2 C 20,0 C 59 % 1014,9 hPa 0,0 l/m 2 min 0 min 903 W/m 22,5 km/h (4 Bft) 95,74 %
16.07.2023 15:28 23,8 C 27,8 C 20,0 C 59 % 1014,9 hPa 0,0 l/m 2 min 0 min 870 W/m 19,3 km/h (3 Bft) 95,74 %
16.07.2023 15:30 23,9 C 26,7 C 20,0 C 58 % 1014,8 hPa 0,0 l/m 2 min 0 min 861 W/m 25,7 km/h (4 Bft) 91,49 %
16.07.2023 15:32 24,1 C 25,0 C 20,0 C 57 % 1014,9 hPa 0,0 l/m 2 min 0 min 390 W/m 22,5 km/h (4 Bft) 95,74 %
16.07.2023 15:34 23,9 C 24,4 C 20,0 C 56 % 1014,9 hPa 0,0 l/m 0 min 0 min 291 W/m 19,3 km/h (3 Bft) 95,74 %
16.07.2023 15:36 23,8 C 23,9 C 20,0 C 57 % 1014,8 hPa 0,0 l/m 2 min 0 min 410 W/m 22,5 km/h (4 Bft) 93,62 %
16.07.2023 15:38 23,8 C 24,4 C 20,0 C 56 % 1014,9 hPa 0,0 l/m 2 min 0 min 397 W/m 22,5 km/h (4 Bft) 93,48 %
16.07.2023 15:40 23,7 C 24,4 C 20,0 C 56 % 1014,8 hPa 0,0 l/m 2 min 0 min 571 W/m 12,9 km/h (3 Bft) 95,74 %
16.07.2023 15:42 23,8 C 26,1 C 20,0 C 57 % 1014,9 hPa 0,0 l/m 2 min 0 min 445 W/m 12,9 km/h (3 Bft) 95,74 %
16.07.2023 15:44 23,9 C 25,0 C 20,0 C 55 % 1014,9 hPa 0,0 l/m 0 min 0 min 364 W/m 22,5 km/h (4 Bft) 100,00 %
16.07.2023 15:46 24,0 C 26,7 C 20,0 C 55 % 1014,8 hPa 0,0 l/m 0 min 0 min 371 W/m 12,9 km/h (3 Bft) 95,74 %
16.07.2023 15:48 24,2 C 26,7 C 20,0 C 55 % 1014,8 hPa 0,0 l/m 2 min 0 min 977 W/m 32,2 km/h (5 Bft) 97,87 %
16.07.2023 15:50 24,2 C 26,7 C 20,0 C 55 % 1014,8 hPa 0,0 l/m 2 min 0 min 960 W/m 38,6 km/h (5 Bft) 95,65 %
16.07.2023 15:52 24,4 C 26,7 C 20,6 C 55 % 1014,8 hPa 0,0 l/m 2 min 0 min 770 W/m 16,1 km/h (3 Bft) 97,87 %
16.07.2023 15:54 24,4 C 25,6 C 20,6 C 54 % 1014,8 hPa 0,0 l/m 0 min 0 min 361 W/m 19,3 km/h (3 Bft) 93,62 %
16.07.2023 15:56 24,4 C 25,0 C 20,0 C 54 % 1014,8 hPa 0,0 l/m 2 min 0 min 390 W/m 12,9 km/h (3 Bft) 97,87 %
16.07.2023 15:58 24,4 C 26,7 C 20,6 C 54 % 1014,8 hPa 0,0 l/m 2 min 0 min 381 W/m 22,5 km/h (4 Bft) 97,87 %
16.07.2023 16:00 24,5 C 27,8 C 20,6 C 55 % 1014,8 hPa 0,0 l/m 2 min 0 min 859 W/m 16,1 km/h (3 Bft) 97,87 %
16.07.2023 16:02 24,8 C 28,3 C 21,1 C 55 % 1014,8 hPa 0,0 l/m 2 min 0 min 1002 W/m 16,1 km/h (3 Bft) 97,87 %
16.07.2023 16:04 24,9 C 27,2 C 21,1 C 55 % 1014,9 hPa 0,0 l/m 2 min 0 min 538 W/m 29,0 km/h (5 Bft) 100,00 %
16.07.2023 16:06 25,0 C 27,2 C 20,6 C 54 % 1014,9 hPa 0,0 l/m 0 min 0 min 329 W/m 22,5 km/h (4 Bft) 100,00 %
16.07.2023 16:08 24,9 C 26,7 C 20,6 C 53 % 1014,8 hPa 0,0 l/m 0 min 0 min 332 W/m 19,3 km/h (3 Bft) 100,00 %
16.07.2023 16:10 24,8 C 27,2 C 20,6 C 53 % 1014,8 hPa 0,0 l/m 0 min 0 min 336 W/m 12,9 km/h (3 Bft) 100,00 %
16.07.2023 16:12 24,9 C 27,2 C 20,6 C 54 % 1014,9 hPa 0,0 l/m 2 min 0 min 615 W/m 22,5 km/h (4 Bft) 100,00 %
16.07.2023 16:14 24,9 C 27,8 C 20,6 C 53 % 1015,0 hPa 0,0 l/m 2 min 0 min 779 W/m 35,4 km/h (5 Bft) 100,00 %
16.07.2023 16:16 24,9 C 28,3 C 20,6 C 53 % 1014,9 hPa 0,0 l/m 2 min 0 min 854 W/m 19,3 km/h (3 Bft) 100,00 %
16.07.2023 16:18 25,0 C 27,2 C 20,6 C 53 % 1014,9 hPa 0,0 l/m 2 min 0 min 870 W/m 19,3 km/h (3 Bft) 100,00 %
16.07.2023 16:20 24,9 C 26,1 C 20,6 C 54 % 1014,8 hPa 0,0 l/m 0 min 0 min 300 W/m 16,1 km/h (3 Bft) 100,00 %
16.07.2023 16:22 24,9 C 27,2 C 20,6 C 54 % 1014,9 hPa 0,0 l/m 0 min 0 min 236 W/m 22,5 km/h (4 Bft) 100,00 %
16.07.2023 16:24 24,9 C 27,8 C 21,1 C 54 % 1014,9 hPa 0,0 l/m 2 min 0 min 712 W/m 16,1 km/h (3 Bft) 100,00 %
16.07.2023 16:26 25,1 C 27,2 C 21,1 C 54 % 1014,8 hPa 0,0 l/m 2 min 0 min 503 W/m 25,7 km/h (4 Bft) 100,00 %
16.07.2023 16:28 25,1 C 26,7 C 21,1 C 53 % 1014,8 hPa 0,0 l/m 2 min 0 min 471 W/m 35,4 km/h (5 Bft) 97,87 %
16.07.2023 16:30 25,1 C 26,7 C 21,1 C 54 % 1014,8 hPa 0,0 l/m 0 min 0 min 324 W/m 16,1 km/h (3 Bft) 100,00 %
16.07.2023 16:32 25,1 C 27,2 C 21,1 C 55 % 1014,8 hPa 0,0 l/m 2 min 0 min 585 W/m 16,1 km/h (3 Bft) 100,00 %
16.07.2023 16:34 25,1 C 26,1 C 21,1 C 54 % 1014,8 hPa 0,0 l/m 2 min 0 min 455 W/m 22,5 km/h (4 Bft) 100,00 %
16.07.2023 16:36 25,0 C 25,6 C 21,1 C 54 % 1014,9 hPa 0,0 l/m 0 min 0 min 265 W/m 22,5 km/h (4 Bft) 97,87 %
16.07.2023 16:38 24,8 C 24,4 C 20,6 C 53 % 1014,9 hPa 0,0 l/m 0 min 0 min 265 W/m 25,7 km/h (4 Bft) 100,00 %
16.07.2023 16:40 24,6 C 24,4 C 20,6 C 54 % 1014,9 hPa 0,0 l/m 0 min 0 min 236 W/m 19,3 km/h (3 Bft) 97,87 %
16.07.2023 16:42 24,6 C 24,4 C 20,6 C 55 % 1014,9 hPa 0,0 l/m 0 min 0 min 232 W/m 22,5 km/h (4 Bft) 100,00 %
16.07.2023 16:44 24,6 C 24,4 C 20,6 C 55 % 1014,9 hPa 0,0 l/m 0 min 0 min 215 W/m 16,1 km/h (3 Bft) 97,83 %
16.07.2023 16:46 24,4 C 23,9 C 20,0 C 55 % 1014,9 hPa 0,0 l/m 0 min 0 min 220 W/m 25,7 km/h (4 Bft) 100,00 %
16.07.2023 16:48 24,3 C 23,9 C 20,0 C 55 % 1014,8 hPa 0,0 l/m 0 min 0 min 238 W/m 19,3 km/h (3 Bft) 95,74 %
16.07.2023 16:50 24,3 C 23,9 C 20,0 C 56 % 1014,9 hPa 0,0 l/m 0 min 0 min 267 W/m 9,7 km/h (2 Bft) 95,74 %
16.07.2023 16:52 24,3 C 24,4 C 20,0 C 56 % 1015,0 hPa 0,0 l/m 0 min 0 min 314 W/m 19,3 km/h (3 Bft) 97,87 %
16.07.2023 16:54 24,3 C 25,6 C 20,6 C 56 % 1014,9 hPa 0,0 l/m 2 min 0 min 517 W/m 16,1 km/h (3 Bft) 97,87 %
16.07.2023 16:56 24,4 C 26,1 C 20,6 C 56 % 1014,9 hPa 0,0 l/m 2 min 0 min 654 W/m 22,5 km/h (4 Bft) 97,87 %
16.07.2023 16:58 24,5 C 25,6 C 20,6 C 55 % 1014,9 hPa 0,0 l/m 2 min 0 min 521 W/m 19,3 km/h (3 Bft) 97,87 %
16.07.2023 17:00 24,5 C 25,0 C 20,6 C 55 % 1014,9 hPa 0,0 l/m 2 min 0 min 345 W/m 16,1 km/h (3 Bft) 95,74 %
16.07.2023 17:02 24,4 C 25,0 C 20,6 C 55 % 1014,8 hPa 0,0 l/m 2 min 0 min 351 W/m 22,5 km/h (4 Bft) 97,83 %
16.07.2023 17:04 24,4 C 25,0 C 20,6 C 55 % 1014,9 hPa 0,0 l/m 2 min 0 min 388 W/m 35,4 km/h (5 Bft) 97,87 %
16.07.2023 17:06 24,3 C 24,4 C 20,0 C 55 % 1014,8 hPa 0,0 l/m 2 min 0 min 334 W/m 32,2 km/h (5 Bft) 97,87 %
16.07.2023 17:08 24,2 C 24,4 C 20,0 C 55 % 1014,9 hPa 0,0 l/m 2 min 0 min 325 W/m 16,1 km/h (3 Bft) 97,87 %
16.07.2023 17:10 24,2 C 24,4 C 20,0 C 56 % 1014,8 hPa 0,0 l/m 2 min 0 min 349 W/m 16,1 km/h (3 Bft) 97,87 %
16.07.2023 17:12 24,1 C 24,4 C 20,0 C 56 % 1014,8 hPa 0,0 l/m 0 min 0 min 286 W/m 19,3 km/h (3 Bft) 97,83 %
16.07.2023 17:14 24,1 C 23,9 C 20,0 C 56 % 1014,8 hPa 0,0 l/m 2 min 0 min 304 W/m 16,1 km/h (3 Bft) 95,74 %
16.07.2023 17:16 24,1 C 24,4 C 20,0 C 56 % 1014,8 hPa 0,0 l/m 2 min 0 min 312 W/m 22,5 km/h (4 Bft) 97,87 %
16.07.2023 17:18 24,1 C 24,4 C 20,0 C 57 % 1014,8 hPa 0,0 l/m 2 min 0 min 374 W/m 16,1 km/h (3 Bft) 97,87 %
16.07.2023 17:20 24,2 C 25,0 C 20,6 C 57 % 1014,9 hPa 0,0 l/m 2 min 0 min 390 W/m 12,9 km/h (3 Bft) 100,00 %
16.07.2023 17:22 24,2 C 25,0 C 20,6 C 56 % 1014,9 hPa 0,0 l/m 2 min 0 min 449 W/m 25,7 km/h (4 Bft) 100,00 %
16.07.2023 17:24 24,3 C 25,6 C 20,6 C 56 % 1014,9 hPa 0,0 l/m 2 min 0 min 538 W/m 16,1 km/h (3 Bft) 100,00 %
16.07.2023 17:26 24,3 C 25,6 C 20,6 C 55 % 1014,8 hPa 0,0 l/m 2 min 0 min 367 W/m 19,3 km/h (3 Bft) 100,00 %
16.07.2023 17:28 24,4 C 25,0 C 20,6 C 55 % 1014,8 hPa 0,0 l/m 2 min 0 min 365 W/m 16,1 km/h (3 Bft) 100,00 %
16.07.2023 17:30 24,4 C 25,6 C 20,6 C 55 % 1014,8 hPa 0,0 l/m 2 min 0 min 454 W/m 25,7 km/h (4 Bft) 100,00 %
16.07.2023 17:32 24,4 C 25,6 C 20,6 C 55 % 1014,8 hPa 0,0 l/m 2 min 0 min 380 W/m 16,1 km/h (3 Bft) 100,00 %
16.07.2023 17:34 24,4 C 25,0 C 20,0 C 55 % 1014,8 hPa 0,0 l/m 2 min 0 min 301 W/m 12,9 km/h (3 Bft) 97,87 %
16.07.2023 17:36 24,4 C 25,0 C 20,0 C 56 % 1014,8 hPa 0,0 l/m 2 min 0 min 322 W/m 22,5 km/h (4 Bft) 97,87 %
16.07.2023 17:38 24,3 C 24,4 C 20,0 C 55 % 1014,9 hPa 0,0 l/m 0 min 0 min 266 W/m 29,0 km/h (5 Bft) 95,74 %
16.07.2023 17:40 24,3 C 24,4 C 20,0 C 54 % 1014,9 hPa 0,0 l/m 0 min 0 min 270 W/m 35,4 km/h (5 Bft) 97,83 %
16.07.2023 17:42 24,2 C 23,9 C 20,0 C 55 % 1014,9 hPa 0,0 l/m 0 min 0 min 255 W/m 19,3 km/h (3 Bft) 97,87 %
16.07.2023 17:44 24,1 C 23,9 C 20,0 C 55 % 1014,9 hPa 0,0 l/m 0 min 0 min 225 W/m 25,7 km/h (4 Bft) 97,87 %
16.07.2023 17:46 24,1 C 23,9 C 20,0 C 55 % 1014,9 hPa 0,0 l/m 0 min 0 min 214 W/m 22,5 km/h (4 Bft) 97,87 %
16.07.2023 17:48 23,9 C 23,3 C 20,0 C 55 % 1014,9 hPa 0,0 l/m 0 min 0 min 211 W/m 35,4 km/h (5 Bft) 97,87 %
16.07.2023 17:50 23,8 C 23,3 C 20,0 C 55 % 1014,8 hPa 0,0 l/m 0 min 0 min 209 W/m 29,0 km/h (5 Bft) 97,87 %
16.07.2023 17:52 23,8 C 23,3 C 19,4 C 56 % 1014,9 hPa 0,0 l/m 0 min 0 min 210 W/m 29,0 km/h (5 Bft) 97,83 %
16.07.2023 17:54 23,7 C 23,3 C 19,4 C 55 % 1014,9 hPa 0,0 l/m 0 min 0 min 212 W/m 22,5 km/h (4 Bft) 95,74 %
16.07.2023 17:56 23,7 C 23,3 C 19,4 C 56 % 1014,8 hPa 0,0 l/m 0 min 0 min 221 W/m 12,9 km/h (3 Bft) 97,87 %
16.07.2023 17:58 23,7 C 23,3 C 19,4 C 57 % 1014,8 hPa 0,0 l/m 0 min 0 min 237 W/m 12,9 km/h (3 Bft) 97,87 %
16.07.2023 18:00 23,7 C 23,3 C 20,0 C 57 % 1014,8 hPa 0,0 l/m 0 min 0 min 238 W/m 6,4 km/h (2 Bft) 95,74 %
16.07.2023 18:02 23,7 C 23,3 C 20,0 C 57 % 1014,8 hPa 0,0 l/m 0 min 0 min 225 W/m 22,5 km/h (4 Bft) 97,87 %
16.07.2023 18:04 23,8 C 23,3 C 20,0 C 57 % 1014,7 hPa 0,0 l/m 0 min 0 min 219 W/m 12,9 km/h (3 Bft) 97,62 %
16.07.2023 18:07 23,8 C 23,9 C 20,0 C 57 % 1014,6 hPa 0,0 l/m 0 min 0 min 226 W/m 12,9 km/h (3 Bft) 96,97 %
16.07.2023 18:08 23,8 C 23,9 C 20,0 C 57 % 1014,6 hPa 0,0 l/m 1 min 0 min 247 W/m 12,9 km/h (3 Bft) 100,00 %
16.07.2023 18:12 23,9 C 24,4 C 20,0 C 57 % 1014,6 hPa 0,0 l/m 0 min 0 min 209 W/m 9,7 km/h (2 Bft) 98,15 %
16.07.2023 18:14 23,9 C 25,0 C 20,0 C 57 % 1014,7 hPa 0,0 l/m 2 min 0 min 245 W/m 12,9 km/h (3 Bft) 97,87 %
16.07.2023 18:16 23,9 C 24,4 C 20,0 C 58 % 1014,6 hPa 0,0 l/m 2 min 0 min 242 W/m 16,1 km/h (3 Bft) 97,87 %
16.07.2023 18:18 23,9 C 24,4 C 20,0 C 56 % 1014,6 hPa 0,0 l/m 0 min 0 min 215 W/m 12,9 km/h (3 Bft) 95,65 %
16.07.2023 18:20 23,9 C 24,4 C 20,0 C 56 % 1014,6 hPa 0,0 l/m 2 min 0 min 254 W/m 12,9 km/h (3 Bft) 97,87 %
16.07.2023 18:22 23,9 C 26,1 C 20,0 C 56 % 1014,6 hPa 0,0 l/m 2 min 0 min 354 W/m 12,9 km/h (3 Bft) 97,87 %
16.07.2023 18:24 24,1 C 26,7 C 20,0 C 56 % 1014,6 hPa 0,0 l/m 2 min 0 min 456 W/m 19,3 km/h (3 Bft) 97,87 %
16.07.2023 18:26 24,1 C 27,2 C 20,6 C 56 % 1014,7 hPa 0,0 l/m 2 min 0 min 427 W/m 22,5 km/h (4 Bft) 97,87 %
16.07.2023 18:28 24,2 C 27,2 C 20,6 C 56 % 1014,7 hPa 0,0 l/m 2 min 0 min 427 W/m 12,9 km/h (3 Bft) 95,74 %
16.07.2023 18:30 24,3 C 27,8 C 20,6 C 56 % 1014,7 hPa 0,0 l/m 2 min 0 min 439 W/m 16,1 km/h (3 Bft) 97,83 %
16.07.2023 18:32 24,3 C 27,2 C 20,6 C 54 % 1014,7 hPa 0,0 l/m 2 min 0 min 410 W/m 22,5 km/h (4 Bft) 97,87 %
16.07.2023 18:34 24,3 C 27,2 C 20,6 C 54 % 1014,6 hPa 0,0 l/m 2 min 0 min 368 W/m 12,9 km/h (3 Bft) 97,87 %
16.07.2023 18:36 24,3 C 26,7 C 20,6 C 55 % 1014,6 hPa 0,0 l/m 2 min 0 min 381 W/m 16,1 km/h (3 Bft) 97,87 %
16.07.2023 18:38 24,3 C 26,7 C 20,6 C 55 % 1014,6 hPa 0,0 l/m 2 min 0 min 350 W/m 19,3 km/h (3 Bft) 97,87 %
16.07.2023 18:40 24,3 C 26,7 C 20,6 C 54 % 1014,7 hPa 0,0 l/m 2 min 0 min 340 W/m 25,7 km/h (4 Bft) 95,74 %
16.07.2023 18:42 24,3 C 27,2 C 20,6 C 54 % 1014,7 hPa 0,0 l/m 2 min 0 min 373 W/m 16,1 km/h (3 Bft) 97,87 %
16.07.2023 18:44 24,4 C 26,7 C 20,6 C 55 % 1014,7 hPa 0,0 l/m 2 min 0 min 282 W/m 12,9 km/h (3 Bft) 97,83 %
16.07.2023 18:46 24,4 C 26,1 C 20,6 C 55 % 1014,7 hPa 0,0 l/m 2 min 0 min 224 W/m 19,3 km/h (3 Bft) 97,87 %
16.07.2023 18:48 24,3 C 25,6 C 20,0 C 54 % 1014,7 hPa 0,0 l/m 0 min 0 min 187 W/m 12,9 km/h (3 Bft) 93,62 %
16.07.2023 18:50 24,3 C 25,0 C 20,0 C 55 % 1014,7 hPa 0,0 l/m 0 min 0 min 146 W/m 12,9 km/h (3 Bft) 93,62 %
16.07.2023 18:52 24,2 C 23,9 C 20,0 C 55 % 1014,7 hPa 0,0 l/m 0 min 0 min 138 W/m 16,1 km/h (3 Bft) 95,74 %
16.07.2023 18:54 24,1 C 23,9 C 20,0 C 55 % 1014,7 hPa 0,0 l/m 0 min 0 min 169 W/m 19,3 km/h (3 Bft) 93,62 %
16.07.2023 18:56 24,0 C 23,9 C 19,4 C 55 % 1014,7 hPa 0,0 l/m 2 min 0 min 216 W/m 12,9 km/h (3 Bft) 95,74 %
16.07.2023 18:58 23,9 C 23,9 C 19,4 C 55 % 1014,7 hPa 0,0 l/m 2 min 0 min 205 W/m 6,4 km/h (2 Bft) 95,65 %
16.07.2023 19:00 23,9 C 24,4 C 19,4 C 55 % 1014,7 hPa 0,0 l/m 2 min 0 min 287 W/m 12,9 km/h (3 Bft) 95,74 %
16.07.2023 19:02 23,9 C 26,1 C 20,0 C 56 % 1014,7 hPa 0,0 l/m 2 min 0 min 375 W/m 12,9 km/h (3 Bft) 93,62 %
16.07.2023 19:04 24,1 C 26,7 C 20,0 C 56 % 1014,7 hPa 0,0 l/m 2 min 0 min 480 W/m 12,9 km/h (3 Bft) 95,24 %
16.07.2023 19:06 24,2 C 26,7 C 20,6 C 55 % 1014,7 hPa 0,0 l/m 2 min 0 min 440 W/m 19,3 km/h (3 Bft) 95,74 %
16.07.2023 19:08 24,3 C 27,2 C 20,6 C 56 % 1014,6 hPa 0,0 l/m 2 min 0 min 413 W/m 12,9 km/h (3 Bft) 95,74 %
16.07.2023 19:10 24,3 C 26,7 C 20,6 C 55 % 1014,7 hPa 0,0 l/m 2 min 0 min 398 W/m 16,1 km/h (3 Bft) 93,62 %
16.07.2023 19:12 24,4 C 25,6 C 20,0 C 55 % 1014,7 hPa 0,0 l/m 2 min 0 min 285 W/m 22,5 km/h (4 Bft) 93,62 %
16.07.2023 19:14 24,3 C 26,1 C 20,0 C 55 % 1014,7 hPa 0,0 l/m 2 min 0 min 310 W/m 22,5 km/h (4 Bft) 95,74 %
16.07.2023 19:16 24,3 C 25,0 C 20,0 C 54 % 1014,7 hPa 0,0 l/m 2 min 0 min 274 W/m 12,9 km/h (3 Bft) 95,65 %
16.07.2023 19:18 24,3 C 25,0 C 20,0 C 55 % 1014,7 hPa 0,0 l/m 2 min 0 min 202 W/m 6,4 km/h (2 Bft) 93,62 %
16.07.2023 19:20 24,3 C 25,0 C 20,0 C 55 % 1014,7 hPa 0,0 l/m 2 min 0 min 243 W/m 6,4 km/h (2 Bft) 97,87 %
16.07.2023 19:22 24,3 C 24,4 C 20,0 C 55 % 1014,7 hPa 0,0 l/m 2 min 0 min 240 W/m 16,1 km/h (3 Bft) 95,74 %
16.07.2023 19:24 24,3 C 23,9 C 20,0 C 55 % 1014,7 hPa 0,0 l/m 0 min 0 min 156 W/m 12,9 km/h (3 Bft) 100,00 %
16.07.2023 19:26 24,2 C 23,9 C 20,0 C 55 % 1014,7 hPa 0,0 l/m 0 min 0 min 150 W/m 12,9 km/h (3 Bft) 100,00 %
16.07.2023 19:28 24,2 C 23,9 C 20,0 C 55 % 1014,8 hPa 0,0 l/m 0 min 0 min 151 W/m 9,7 km/h (2 Bft) 100,00 %
16.07.2023 19:30 24,1 C 23,3 C 20,0 C 55 % 1014,8 hPa 0,0 l/m 2 min 0 min 151 W/m 12,9 km/h (3 Bft) 100,00 %
16.07.2023 19:32 24,1 C 23,3 C 19,4 C 55 % 1014,8 hPa 0,0 l/m 2 min 0 min 169 W/m 12,9 km/h (3 Bft) 100,00 %
16.07.2023 19:34 24,1 C 23,3 C 19,4 C 55 % 1014,8 hPa 0,0 l/m 2 min 0 min 200 W/m 12,9 km/h (3 Bft) 91,49 %
16.07.2023 19:36 24,0 C 23,3 C 19,4 C 55 % 1014,8 hPa 0,0 l/m 2 min 0 min 214 W/m 6,4 km/h (2 Bft) 100,00 %
16.07.2023 19:38 24,0 C 23,9 C 19,4 C 55 % 1014,8 hPa 0,0 l/m 2 min 0 min 304 W/m 12,9 km/h (3 Bft) 100,00 %
16.07.2023 19:40 24,0 C 23,9 C 20,0 C 54 % 1014,8 hPa 0,0 l/m 2 min 0 min 287 W/m 19,3 km/h (3 Bft) 100,00 %
16.07.2023 19:42 24,0 C 23,9 C 20,0 C 55 % 1014,9 hPa 0,0 l/m 2 min 0 min 265 W/m 9,7 km/h (2 Bft) 100,00 %
16.07.2023 19:44 24,1 C 23,9 C 20,0 C 55 % 1014,9 hPa 0,0 l/m 2 min 0 min 243 W/m 6,4 km/h (2 Bft) 97,83 %
16.07.2023 19:46 24,1 C 23,9 C 20,0 C 55 % 1014,8 hPa 0,0 l/m 2 min 0 min 209 W/m 6,4 km/h (2 Bft) 95,74 %
16.07.2023 19:48 24,1 C 23,9 C 20,0 C 55 % 1014,8 hPa 0,0 l/m 2 min 0 min 208 W/m 12,9 km/h (3 Bft) 100,00 %
16.07.2023 19:50 24,1 C 23,3 C 19,4 C 54 % 1014,9 hPa 0,0 l/m 2 min 0 min 129 W/m 12,9 km/h (3 Bft) 100,00 %
16.07.2023 19:52 24,0 C 23,3 C 19,4 C 55 % 1014,9 hPa 0,0 l/m 0 min 0 min 109 W/m 12,9 km/h (3 Bft) 100,00 %
16.07.2023 19:54 23,9 C 23,3 C 19,4 C 55 % 1014,9 hPa 0,0 l/m 0 min 0 min 101 W/m 6,4 km/h (2 Bft) 100,00 %
16.07.2023 19:56 23,9 C 22,8 C 19,4 C 55 % 1014,9 hPa 0,0 l/m 0 min 0 min 90 W/m 12,9 km/h (3 Bft) 100,00 %
16.07.2023 19:58 23,8 C 22,8 C 19,4 C 55 % 1014,9 hPa 0,0 l/m 0 min 0 min 88 W/m 12,9 km/h (3 Bft) 100,00 %
16.07.2023 20:00 23,7 C 22,8 C 19,4 C 55 % 1014,9 hPa 0,0 l/m 0 min 0 min 84 W/m 12,9 km/h (3 Bft) 100,00 %
16.07.2023 20:02 23,6 C 22,8 C 18,9 C 55 % 1014,8 hPa 0,0 l/m 0 min 0 min 82 W/m 19,3 km/h (3 Bft) 95,74 %
16.07.2023 20:04 23,6 C 22,8 C 18,9 C 55 % 1014,9 hPa 0,0 l/m 0 min 0 min 86 W/m 12,9 km/h (3 Bft) 97,96 %
16.07.2023 20:06 23,5 C 22,8 C 18,9 C 56 % 1014,9 hPa 0,0 l/m 0 min 0 min 88 W/m 12,9 km/h (3 Bft) 97,87 %
16.07.2023 20:08 23,4 C 22,8 C 18,9 C 56 % 1014,9 hPa 0,0 l/m 0 min 0 min 84 W/m 6,4 km/h (2 Bft) 97,87 %
16.07.2023 20:10 23,4 C 22,8 C 18,9 C 56 % 1014,9 hPa 0,0 l/m 0 min 0 min 76 W/m 6,4 km/h (2 Bft) 97,83 %
16.07.2023 20:12 23,4 C 22,8 C 18,9 C 56 % 1014,9 hPa 0,0 l/m 0 min 0 min 70 W/m 6,4 km/h (2 Bft) 97,87 %
16.07.2023 20:14 23,4 C 22,8 C 18,9 C 56 % 1014,9 hPa 0,0 l/m 0 min 0 min 67 W/m 3,2 km/h (1 Bft) 97,87 %
16.07.2023 20:16 23,4 C 22,8 C 18,9 C 57 % 1014,9 hPa 0,0 l/m 0 min 0 min 64 W/m 16,1 km/h (3 Bft) 97,87 %
16.07.2023 20:18 23,3 C 22,2 C 18,9 C 56 % 1014,9 hPa 0,0 l/m 0 min 0 min 62 W/m 16,1 km/h (3 Bft) 93,62 %
16.07.2023 20:20 23,3 C 22,2 C 18,9 C 56 % 1014,9 hPa 0,0 l/m 0 min 0 min 62 W/m 9,7 km/h (2 Bft) 97,87 %
16.07.2023 20:22 23,3 C 22,2 C 18,9 C 57 % 1015,0 hPa 0,0 l/m 0 min 0 min 63 W/m 12,9 km/h (3 Bft) 97,87 %
16.07.2023 20:24 23,2 C 22,2 C 18,9 C 56 % 1015,0 hPa 0,0 l/m 0 min 0 min 65 W/m 12,9 km/h (3 Bft) 97,83 %
16.07.2023 20:26 23,2 C 22,2 C 18,9 C 57 % 1015,0 hPa 0,0 l/m 0 min 0 min 64 W/m 6,4 km/h (2 Bft) 97,87 %
16.07.2023 20:28 23,1 C 22,2 C 18,9 C 56 % 1015,0 hPa 0,0 l/m 0 min 0 min 58 W/m 12,9 km/h (3 Bft) 95,74 %
16.07.2023 20:30 23,1 C 22,2 C 18,3 C 56 % 1014,9 hPa 0,0 l/m 0 min 0 min 56 W/m 6,4 km/h (2 Bft) 97,87 %
16.07.2023 20:32 23,1 C 22,2 C 18,3 C 57 % 1014,9 hPa 0,0 l/m 0 min 0 min 54 W/m 9,7 km/h (2 Bft) 97,87 %
16.07.2023 20:34 23,1 C 22,2 C 18,3 C 56 % 1015,0 hPa 0,0 l/m 0 min 0 min 52 W/m 6,4 km/h (2 Bft) 97,87 %
16.07.2023 20:36 23,0 C 22,2 C 18,3 C 57 % 1015,0 hPa 0,0 l/m 0 min 0 min 44 W/m 12,9 km/h (3 Bft) 97,87 %
16.07.2023 20:38 23,0 C 22,2 C 18,3 C 57 % 1015,0 hPa 0,0 l/m 0 min 0 min 35 W/m 6,4 km/h (2 Bft) 97,83 %
16.07.2023 20:40 22,9 C 22,2 C 18,3 C 57 % 1015,0 hPa 0,0 l/m 0 min 0 min 30 W/m 6,4 km/h (2 Bft) 100,00 %
16.07.2023 20:42 22,9 C 21,7 C 18,3 C 57 % 1014,9 hPa 0,0 l/m 0 min 0 min 26 W/m 6,4 km/h (2 Bft) 95,74 %
16.07.2023 20:44 22,9 C 21,7 C 18,3 C 57 % 1015,0 hPa 0,0 l/m 0 min 0 min 26 W/m 6,4 km/h (2 Bft) 95,74 %
16.07.2023 20:46 22,8 C 21,7 C 18,3 C 57 % 1014,9 hPa 0,0 l/m 0 min 0 min 26 W/m 6,4 km/h (2 Bft) 97,87 %
16.07.2023 20:48 22,8 C 21,7 C 18,3 C 57 % 1014,8 hPa 0,0 l/m 0 min 0 min 26 W/m 6,4 km/h (2 Bft) 97,87 %
16.07.2023 20:50 22,8 C 21,7 C 18,3 C 58 % 1014,9 hPa 0,0 l/m 0 min 0 min 26 W/m 6,4 km/h (2 Bft) 97,83 %
16.07.2023 20:52 22,7 C 21,7 C 18,3 C 57 % 1014,9 hPa 0,0 l/m 0 min 0 min 26 W/m 6,4 km/h (2 Bft) 97,87 %
16.07.2023 20:54 22,7 C 21,7 C 18,3 C 58 % 1015,0 hPa 0,0 l/m 0 min 0 min 23 W/m 6,4 km/h (2 Bft) 97,87 %
16.07.2023 20:56 22,6 C 21,7 C 17,8 C 57 % 1015,0 hPa 0,0 l/m 0 min 0 min 21 W/m 6,4 km/h (2 Bft) 97,87 %
16.07.2023 20:58 22,6 C 21,1 C 17,8 C 57 % 1015,0 hPa 0,0 l/m 0 min 0 min 21 W/m 6,4 km/h (2 Bft) 97,87 %
16.07.2023 21:00 22,6 C 21,1 C 17,8 C 58 % 1015,0 hPa 0,0 l/m 0 min 0 min 20 W/m 3,2 km/h (1 Bft) 95,74 %
16.07.2023 21:02 22,5 C 21,1 C 17,8 C 58 % 1015,0 hPa 0,0 l/m 0 min 0 min 21 W/m 3,2 km/h (1 Bft) 97,87 %
16.07.2023 21:04 22,4 C 21,1 C 17,8 C 58 % 1015,0 hPa 0,0 l/m 0 min 0 min 20 W/m 3,2 km/h (1 Bft) 97,92 %
16.07.2023 21:06 22,4 C 21,1 C 17,8 C 59 % 1015,1 hPa 0,0 l/m 0 min 0 min 19 W/m 3,2 km/h (1 Bft) 97,87 %
16.07.2023 21:08 22,4 C 21,1 C 17,8 C 59 % 1015,1 hPa 0,0 l/m 0 min 0 min 18 W/m 0,0 km/h (0 Bft) 97,87 %
16.07.2023 21:10 22,4 C 21,1 C 17,8 C 59 % 1015,2 hPa 0,0 l/m 0 min 0 min 16 W/m 3,2 km/h (1 Bft) 97,87 %
16.07.2023 21:12 22,3 C 21,1 C 17,8 C 59 % 1015,1 hPa 0,0 l/m 0 min 0 min 16 W/m 3,2 km/h (1 Bft) 95,74 %
16.07.2023 21:14 22,3 C 21,1 C 17,8 C 60 % 1015,2 hPa 0,0 l/m 0 min 0 min 16 W/m 3,2 km/h (1 Bft) 95,74 %
16.07.2023 21:16 22,3 C 21,1 C 17,8 C 60 % 1015,2 hPa 0,0 l/m 0 min 0 min 14 W/m 3,2 km/h (1 Bft) 97,87 %
16.07.2023 21:18 22,2 C 20,6 C 17,8 C 60 % 1015,2 hPa 0,0 l/m 0 min 0 min 13 W/m 3,2 km/h (1 Bft) 97,83 %
16.07.2023 21:20 22,2 C 20,6 C 17,2 C 60 % 1015,2 hPa 0,0 l/m 0 min 0 min 13 W/m 6,4 km/h (2 Bft) 97,87 %
16.07.2023 21:22 22,1 C 20,6 C 17,2 C 61 % 1015,2 hPa 0,0 l/m 0 min 0 min 13 W/m 3,2 km/h (1 Bft) 97,87 %
16.07.2023 21:24 22,1 C 20,6 C 17,2 C 61 % 1015,3 hPa 0,0 l/m 0 min 0 min 12 W/m 3,2 km/h (1 Bft) 95,74 %
16.07.2023 21:26 22,1 C 20,6 C 17,2 C 62 % 1015,3 hPa 0,0 l/m 0 min 0 min 10 W/m 3,2 km/h (1 Bft) 100,00 %
16.07.2023 21:28 22,0 C 20,6 C 17,2 C 63 % 1015,4 hPa 0,0 l/m 0 min 0 min 8 W/m 3,2 km/h (1 Bft) 100,00 %
16.07.2023 21:30 21,9 C 20,6 C 17,2 C 63 % 1015,4 hPa 0,0 l/m 0 min 0 min 7 W/m 6,4 km/h (2 Bft) 100,00 %
16.07.2023 21:32 21,9 C 20,6 C 17,2 C 64 % 1015,4 hPa 0,0 l/m 0 min 0 min 5 W/m 3,2 km/h (1 Bft) 95,65 %
16.07.2023 21:34 21,9 C 20,0 C 17,2 C 64 % 1015,3 hPa 0,0 l/m 0 min 0 min 3 W/m 6,4 km/h (2 Bft) 97,87 %
16.07.2023 21:36 21,9 C 20,0 C 16,7 C 64 % 1015,4 hPa 0,0 l/m 0 min 0 min 0 W/m 3,2 km/h (1 Bft) 97,87 %
16.07.2023 21:38 21,8 C 20,0 C 16,7 C 65 % 1015,4 hPa 0,0 l/m 0 min 0 min 0 W/m 3,2 km/h (1 Bft) 95,74 %
16.07.2023 21:40 21,8 C 20,0 C 16,7 C 65 % 1015,5 hPa 0,0 l/m 0 min 0 min 0 W/m 3,2 km/h (1 Bft) 97,87 %
16.07.2023 21:42 21,7 C 20,0 C 16,7 C 66 % 1015,5 hPa 0,0 l/m 0 min 0 min 0 W/m 0,0 km/h (0 Bft) 95,74 %
16.07.2023 21:44 21,6 C 20,0 C 16,7 C 66 % 1015,5 hPa 0,0 l/m 0 min 0 min 0 W/m 0,0 km/h (0 Bft) 97,87 %
16.07.2023 21:46 21,6 C 20,0 C 16,7 C 67 % 1015,6 hPa 0,0 l/m 0 min 0 min 0 W/m 0,0 km/h (0 Bft) 97,83 %
16.07.2023 21:48 21,5 C 20,0 C 16,7 C 67 % 1015,6 hPa 0,0 l/m 0 min 0 min 0 W/m 0,0 km/h (0 Bft) 97,87 %
16.07.2023 21:50 21,4 C 20,0 C 16,7 C 67 % 1015,6 hPa 0,0 l/m 0 min 0 min 0 W/m 6,4 km/h (2 Bft) 95,74 %
16.07.2023 21:52 21,4 C 20,0 C 16,7 C 68 % 1015,7 hPa 0,0 l/m 0 min 0 min 0 W/m 3,2 km/h (1 Bft) 97,87 %
16.07.2023 21:54 21,3 C 20,0 C 16,7 C 68 % 1015,7 hPa 0,0 l/m 0 min 0 min 0 W/m 3,2 km/h (1 Bft) 97,87 %
16.07.2023 21:56 21,3 C 20,0 C 16,7 C 68 % 1015,7 hPa 0,0 l/m 0 min 0 min 0 W/m 3,2 km/h (1 Bft) 95,74 %
16.07.2023 21:58 21,2 C 19,4 C 16,7 C 69 % 1015,7 hPa 0,0 l/m 0 min 0 min 0 W/m 6,4 km/h (2 Bft) 97,83 %
16.07.2023 22:00 21,2 C 20,0 C 16,7 C 69 % 1015,7 hPa 0,0 l/m 0 min 0 min 0 W/m 3,2 km/h (1 Bft) 97,87 %
16.07.2023 22:02 21,1 C 20,0 C 16,7 C 69 % 1015,7 hPa 0,0 l/m 0 min 0 min 0 W/m 6,4 km/h (2 Bft) 95,74 %
16.07.2023 22:04 21,1 C 20,0 C 16,7 C 70 % 1015,8 hPa 0,0 l/m 0 min 0 min 0 W/m 6,4 km/h (2 Bft) 97,96 %
16.07.2023 22:06 21,1 C 20,0 C 16,7 C 70 % 1015,8 hPa 0,0 l/m 0 min 0 min 0 W/m 6,4 km/h (2 Bft) 95,74 %
16.07.2023 22:08 21,1 C 20,0 C 16,1 C 70 % 1015,8 hPa 0,0 l/m 0 min 0 min 0 W/m 6,4 km/h (2 Bft) 95,74 %
16.07.2023 22:10 21,1 C 20,0 C 16,1 C 71 % 1015,8 hPa 0,0 l/m 0 min 0 min 0 W/m 3,2 km/h (1 Bft) 97,87 %
16.07.2023 22:12 21,1 C 20,0 C 16,1 C 71 % 1015,8 hPa 0,0 l/m 0 min 0 min 0 W/m 3,2 km/h (1 Bft) 97,83 %
16.07.2023 22:14 21,1 C 20,0 C 16,1 C 71 % 1015,9 hPa 0,0 l/m 0 min 0 min 0 W/m 6,4 km/h (2 Bft) 97,87 %
16.07.2023 22:16 21,1 C 20,0 C 16,1 C 71 % 1015,8 hPa 0,0 l/m 0 min 0 min 0 W/m 3,2 km/h (1 Bft) 95,74 %
16.07.2023 22:18 21,1 C 20,0 C 16,1 C 71 % 1015,8 hPa 0,0 l/m 0 min 0 min 0 W/m 3,2 km/h (1 Bft) 97,87 %
16.07.2023 22:20 21,1 C 20,0 C 16,1 C 71 % 1015,8 hPa 0,0 l/m 0 min 0 min 0 W/m 3,2 km/h (1 Bft) 97,87 %
16.07.2023 22:22 21,1 C 20,0 C 16,1 C 72 % 1015,8 hPa 0,0 l/m 0 min 0 min 0 W/m 3,2 km/h (1 Bft) 100,00 %
16.07.2023 22:24 21,1 C 20,0 C 16,1 C 72 % 1015,7 hPa 0,0 l/m 0 min 0 min 0 W/m 3,2 km/h (1 Bft) 100,00 %
16.07.2023 22:26 21,1 C 20,0 C 16,1 C 72 % 1015,7 hPa 0,0 l/m 0 min 0 min 0 W/m 3,2 km/h (1 Bft) 97,83 %
16.07.2023 22:28 21,1 C 20,0 C 16,1 C 72 % 1015,7 hPa 0,0 l/m 0 min 0 min 0 W/m 0,0 km/h (0 Bft) 100,00 %
16.07.2023 22:30 21,0 C 19,4 C 16,1 C 72 % 1015,7 hPa 0,0 l/m 0 min 0 min 0 W/m 0,0 km/h (0 Bft) 97,87 %
16.07.2023 22:32 21,0 C 19,4 C 16,1 C 73 % 1015,8 hPa 0,0 l/m 0 min 0 min 0 W/m 0,0 km/h (0 Bft) 97,87 %
16.07.2023 22:34 21,0 C 19,4 C 16,1 C 72 % 1015,8 hPa 0,0 l/m 0 min 0 min 0 W/m 3,2 km/h (1 Bft) 100,00 %
16.07.2023 22:36 20,9 C 19,4 C 16,1 C 72 % 1015,8 hPa 0,0 l/m 0 min 0 min 0 W/m 3,2 km/h (1 Bft) 95,74 %
16.07.2023 22:38 20,9 C 19,4 C 16,1 C 72 % 1015,9 hPa 0,0 l/m 0 min 0 min 0 W/m 6,4 km/h (2 Bft) 100,00 %
16.07.2023 22:40 20,8 C 19,4 C 16,1 C 72 % 1015,9 hPa 0,0 l/m 0 min 0 min 0 W/m 12,9 km/h (3 Bft) 100,00 %
16.07.2023 22:42 20,7 C 19,4 C 16,1 C 72 % 1015,9 hPa 0,0 l/m 0 min 0 min 0 W/m 6,4 km/h (2 Bft) 100,00 %
16.07.2023 22:44 20,7 C 19,4 C 16,1 C 71 % 1015,9 hPa 0,0 l/m 0 min 0 min 0 W/m 3,2 km/h (1 Bft) 97,87 %
16.07.2023 22:46 20,7 C 19,4 C 16,1 C 71 % 1015,9 hPa 0,0 l/m 0 min 0 min 0 W/m 3,2 km/h (1 Bft) 93,62 %
16.07.2023 22:48 20,7 C 19,4 C 16,1 C 71 % 1015,9 hPa 0,0 l/m 0 min 0 min 0 W/m 3,2 km/h (1 Bft) 95,74 %
16.07.2023 22:50 20,7 C 19,4 C 16,1 C 71 % 1015,9 hPa 0,0 l/m 0 min 0 min 0 W/m 6,4 km/h (2 Bft) 91,49 %
16.07.2023 22:52 20,7 C 20,0 C 16,1 C 71 % 1015,9 hPa 0,0 l/m 0 min 0 min 0 W/m 3,2 km/h (1 Bft) 91,49 %
16.07.2023 22:54 20,7 C 19,4 C 16,1 C 71 % 1015,8 hPa 0,0 l/m 0 min 0 min 0 W/m 3,2 km/h (1 Bft) 95,65 %
16.07.2023 22:56 20,7 C 19,4 C 16,1 C 71 % 1015,8 hPa 0,0 l/m 0 min 0 min 0 W/m 3,2 km/h (1 Bft) 95,74 %
16.07.2023 22:58 20,7 C 19,4 C 16,1 C 71 % 1015,8 hPa 0,0 l/m 0 min 0 min 0 W/m 0,0 km/h (0 Bft) 95,74 %
16.07.2023 23:00 20,7 C 19,4 C 16,1 C 72 % 1015,8 hPa 0,0 l/m 0 min 0 min 0 W/m 0,0 km/h (0 Bft) 95,74 %
16.07.2023 23:02 20,7 C 19,4 C 15,6 C 72 % 1015,9 hPa 0,0 l/m 0 min 0 min 0 W/m 3,2 km/h (1 Bft) 95,74 %
16.07.2023 23:04 20,7 C 19,4 C 15,6 C 72 % 1015,9 hPa 0,0 l/m 0 min 0 min 0 W/m 0,0 km/h (0 Bft) 95,92 %
16.07.2023 23:06 20,6 C 19,4 C 15,6 C 72 % 1015,8 hPa 0,0 l/m 0 min 0 min 0 W/m 3,2 km/h (1 Bft) 95,65 %
16.07.2023 23:08 20,6 C 19,4 C 15,6 C 72 % 1015,8 hPa 0,0 l/m 0 min 0 min 0 W/m 0,0 km/h (0 Bft) 93,62 %
16.07.2023 23:10 20,6 C 18,9 C 15,6 C 73 % 1015,8 hPa 0,0 l/m 0 min 0 min 0 W/m 0,0 km/h (0 Bft) 95,74 %
16.07.2023 23:12 20,6 C 18,9 C 15,6 C 73 % 1015,8 hPa 0,0 l/m 0 min 0 min 0 W/m 0,0 km/h (0 Bft) 93,62 %
16.07.2023 23:14 20,5 C 18,9 C 15,6 C 73 % 1015,8 hPa 0,0 l/m 0 min 0 min 0 W/m 0,0 km/h (0 Bft) 95,74 %
16.07.2023 23:16 20,4 C 18,9 C 15,6 C 72 % 1015,8 hPa 0,0 l/m 0 min 0 min 0 W/m 0,0 km/h (0 Bft) 95,74 %
16.07.2023 23:18 20,4 C 18,9 C 15,6 C 72 % 1015,8 hPa 0,0 l/m 0 min 0 min 0 W/m 0,0 km/h (0 Bft) 97,87 %
16.07.2023 23:20 20,4 C 18,9 C 15,6 C 72 % 1015,8 hPa 0,0 l/m 0 min 0 min 0 W/m 0,0 km/h (0 Bft) 97,83 %
16.07.2023 23:22 20,4 C 18,9 C 15,6 C 72 % 1015,8 hPa 0,0 l/m 0 min 0 min 0 W/m 0,0 km/h (0 Bft) 97,87 %
16.07.2023 23:24 20,4 C 18,9 C 15,6 C 72 % 1015,8 hPa 0,0 l/m 0 min 0 min 0 W/m 0,0 km/h (0 Bft) 97,87 %
16.07.2023 23:26 20,3 C 18,9 C 15,6 C 72 % 1015,8 hPa 0,0 l/m 0 min 0 min 0 W/m 0,0 km/h (0 Bft) 95,74 %
16.07.2023 23:28 20,3 C 18,9 C 15,6 C 72 % 1015,9 hPa 0,0 l/m 0 min 0 min 0 W/m 0,0 km/h (0 Bft) 95,74 %
16.07.2023 23:30 20,3 C 18,9 C 15,0 C 73 % 1015,9 hPa 0,0 l/m 0 min 0 min 0 W/m 0,0 km/h (0 Bft) 97,14 %
16.07.2023 23:32 20,3 C 18,9 C 15,0 C 73 % 1015,9 hPa 0,0 l/m 0 min 0 min 0 W/m 0,0 km/h (0 Bft) 97,87 %
16.07.2023 23:34 20,3 C 18,9 C 15,0 C 73 % 1015,9 hPa 0,0 l/m 0 min 0 min 0 W/m 0,0 km/h (0 Bft) 97,87 %
16.07.2023 23:36 20,2 C 18,9 C 15,0 C 74 % 1015,9 hPa 0,0 l/m 0 min 0 min 0 W/m 0,0 km/h (0 Bft) 97,87 %
16.07.2023 23:38 20,2 C 18,9 C 15,0 C 73 % 1015,9 hPa 0,0 l/m 0 min 0 min 0 W/m 0,0 km/h (0 Bft) 100,00 %
16.07.2023 23:40 20,2 C 18,9 C 15,0 C 73 % 1015,9 hPa 0,0 l/m 0 min 0 min 0 W/m 0,0 km/h (0 Bft) 100,00 %
16.07.2023 23:42 20,1 C 18,9 C 15,0 C 74 % 1015,9 hPa 0,0 l/m 0 min 0 min 0 W/m 0,0 km/h (0 Bft) 97,87 %
16.07.2023 23:44 20,1 C 18,3 C 15,0 C 73 % 1015,9 hPa 0,0 l/m 0 min 0 min 0 W/m 0,0 km/h (0 Bft) 100,00 %
16.07.2023 23:46 20,1 C 18,3 C 15,0 C 74 % 1015,9 hPa 0,0 l/m 0 min 0 min 0 W/m 0,0 km/h (0 Bft) 100,00 %
16.07.2023 23:48 20,0 C 18,3 C 15,0 C 74 % 1015,9 hPa 0,0 l/m 0 min 0 min 0 W/m 0,0 km/h (0 Bft) 100,00 %
16.07.2023 23:50 19,9 C 18,3 C 15,0 C 74 % 1016,0 hPa 0,0 l/m 0 min 0 min 0 W/m 0,0 km/h (0 Bft) 97,87 %
16.07.2023 23:52 19,9 C 18,3 C 15,0 C 74 % 1015,9 hPa 0,0 l/m 0 min 0 min 0 W/m 0,0 km/h (0 Bft) 97,83 %
16.07.2023 23:54 19,9 C 18,3 C 15,0 C 74 % 1015,9 hPa 0,0 l/m 0 min 0 min 0 W/m 0,0 km/h (0 Bft) 100,00 %
16.07.2023 23:56 19,9 C 18,3 C 15,0 C 74 % 1016,0 hPa 0,0 l/m 0 min 0 min 0 W/m 0,0 km/h (0 Bft) 100,00 %
16.07.2023 23:58 19,8 C 18,3 C 15,0 C 74 % 1015,9 hPa 0,0 l/m 0 min 0 min 0 W/m 0,0 km/h (0 Bft) 100,00 %
_ Min-Zeit 05:32 04:26 00:10 16:08 00:00 - - - - 01:02 05:18
Minimum _ 16,5 C 15,6 C 12,8 C 53 % 1009,0 hPa - - - - 0,0 km/h (0 Bft) 91,43 %
_ Max-Zeit 16:26 16:02 12:24 03:06 23:50 00:00 08:04 01:16 12:54 09:24 00:22
Maximum _ 25,1 C 28,3 C 22,2 C 95 % 1016,0 hPa 0,0 l/m 2 min 2 min 1074 W/m 51,5 km/h
S-SO (7 Bft)
100,00 %
Durchschnitt _ 20,6 C 20,8 C 16,8 C 72 % 1013,3 hPa #0,0 l/m #6:43 h #8 min. 312 W/m 15,2 km/h (3 Bft) 97,57 %
© 2023 W. Hausmann